Data for 08/30/2008

Time Sea-Level Adjusted Pressure Absolute Pressure Temperature Relative Humidity Dew Point Precipitation   
(mb) (inHg) (mb) (inHg) (C) (F) (%) (C) (F) (mm) (in)
00:01 1016 30 845 24.95 18.6 65.4 32 1.7 35 0
00:02 1016 30 845 24.95 18.8 65.8 32 1.7 35.1 0
00:03 1016 30 845 24.95 19 66.2 31 1.8 35.3 0
00:04 1016 30 845 24.95 19.1 66.3 31 1.9 35.5 0
00:05 1016 30 845 24.95 19.1 66.4 31 1.8 35.3 0
00:06 1016 30 845 24.95 19 66.1 34 3 37.5 0
00:07 1016 30 845 24.95 18.3 65 35 2.6 36.7 0
00:08 1016 30 845 24.95 18.1 64.6 34 2.3 36.1 0
00:09 1016 30 845 24.95 18.1 64.5 34 1.9 35.5 0
00:10 1016 30 845 24.95 18.2 64.8 33 1.8 35.3 0
00:11 1016 30 845 24.95 18.4 65.1 33 1.9 35.3 0
00:12 1016 30 845 24.95 18.5 65.4 33 2.2 35.9 0
00:13 1016 30 845 24.95 18.3 64.9 39 4.2 39.6 0
00:14 1016 30 845 24.95 16.9 62.3 42 4 39.3 0
00:15 1016 30 845 24.95 16.1 60.9 41 3.1 37.5 0
00:16 1016 30 845 24.95 16 60.8 41 2.9 37.3 0
00:17 1016 30 845 24.95 15.8 60.5 44 3.7 38.7 0
00:18 1016 30 845 24.95 15.4 59.7 44 3.4 38 0
00:19 1015 29.97 845 24.95 15.2 59.3 44 3 37.3 0
00:20 1015 29.97 845 24.95 15.2 59.3 45 3.5 38.3 0
00:21 1015 29.97 845 24.95 15 59 46 3.7 38.7 0
00:22 1015 29.97 845 24.95 14.7 58.5 47 3.7 38.6 0
00:23 1015 29.97 845 24.95 14.6 58.3 46 3.1 37.6 0
00:24 1015 29.97 845 24.95 14.7 58.5 47 3.6 38.5 0
00:25 1015 29.97 845 24.95 14.6 58.3 46 3.4 38.1 0
00:26 1015 29.97 845 24.95 14.5 58.1 48 3.7 38.6 0
00:27 1015 29.97 845 24.95 14.3 57.7 48 3.5 38.2 0
00:28 1015 29.97 845 24.95 14.2 57.6 47 3.3 37.9 0
00:29 1015 29.97 845 24.95 14.3 57.8 49 3.8 38.9 0
00:30 1015 29.97 845 24.95 14.1 57.5 49 3.7 38.6 0
00:31 1015 29.97 845 24.95 14.1 57.3 48 3.2 37.8 0
00:32 1015 29.97 845 24.95 14.2 57.5 48 3.4 38.1 0
00:33 1015 29.97 845 24.95 14.3 57.8 47 3.1 37.6 0
00:34 1015 29.97 845 24.95 14.6 58.3 45 3 37.5 0
00:35 1015 29.97 845 24.95 15 58.9 44 2.8 37.1 0
00:36 1015 29.97 845 24.95 15.4 59.7 41 2.4 36.4 0
00:37 1015 29.97 845 24.95 15.9 60.6 40 2.4 36.3 0
00:38 1015 29.97 845 24.95 16.3 61.3 40 2.8 37 0
00:39 1015 29.97 845 24.95 16.2 61.1 41 2.9 37.3 0
00:40 1015 29.97 845 24.95 16.1 60.9 40 2.6 36.7 0
00:41 1015 29.97 845 24.95 16.1 61 39 2.4 36.4 0
00:42 1015 29.97 845 24.95 16.2 61.2 40 2.6 36.7 0
00:43 1015 29.97 845 24.95 16.1 61 41 2.9 37.2 0
00:44 1015 29.97 845 24.95 16 60.8 40 2.6 36.6 0
00:45 1015 29.97 845 24.95 16.2 61.1 40 2.5 36.5 0
00:46 1015 29.97 845 24.95 16.2 61.1 40 2.8 37 0
00:47 1015 29.97 845 24.95 16.1 60.9 40 2.5 36.5 0
00:48 1015 29.97 845 24.95 16 60.8 41 3 37.4 0
00:49 1015 29.97 845 24.95 15.8 60.4 40 2.5 36.4 0
00:50 1015 29.97 845 24.95 16 60.8 39 2.3 36.2 0
00:51 1015 29.97 845 24.95 16.1 60.9 43 3.7 38.7 0
00:52 1015 29.97 845 24.95 15.1 59.2 46 3.8 38.9 0
00:53 1015 29.97 845 24.95 14.3 57.7 49 3.9 39 0
00:54 1015 29.97 845 24.95 13.8 56.8 50 3.7 38.6 0
00:55 1015 29.97 845 24.95 13.5 56.4 52 3.8 38.9 0
00:56 1015 29.97 845 24.95 13.2 55.8 53 3.8 38.8 0
00:57 1015 29.97 845 24.95 13.1 55.5 54 4.1 39.3 0
00:58 1015 29.97 845 24.95 12.5 54.6 57 4.2 39.6 0
00:59 1015 29.97 845 24.95 11.9 53.5 58 4 39.1 0
01:00 1015 29.97 845 24.95 11.7 53.1 59 3.9 39.1 0
01:01 1015 29.97 845 24.95 11.8 53.2 59 4.1 39.4 0
01:02 1015 29.97 845 24.95 11.8 53.2 59 4.1 39.4 0
01:03 1015 29.97 845 24.95 11.8 53.2 59 4.2 39.6 0
01:04 1015 29.97 844 24.92 11.7 53 60 4.2 39.6 0
01:05 1015 29.97 845 24.95 11.6 52.9 59 4 39.1 0
01:06 1015 29.97 844 24.92 11.7 53.1 59 4 39.1 0
01:07 1015 29.97 844 24.92 11.8 53.2 59 4.1 39.4 0
01:08 1015 29.97 844 24.92 11.6 52.9 61 4.4 39.9 0
01:09 1015 29.97 844 24.92 11.2 52.2 62 4.4 39.9 0
01:10 1015 29.97 844 24.92 10.9 51.7 63 4.2 39.6 0
01:11 1015 29.97 845 24.95 10.8 51.5 63 4.1 39.4 0
01:12 1015 29.97 844 24.92 10.8 51.4 63 4.1 39.4 0
01:13 1015 29.97 844 24.92 10.8 51.4 63 4.1 39.3 0
01:14 1015 29.97 844 24.92 10.8 51.4 63 4.1 39.4 0
01:15 1015 29.97 844 24.92 10.7 51.2 64 4.3 39.7 0
01:16 1015 29.97 844 24.92 10.4 50.8 66 4.4 39.9 0
01:17 1015 29.97 844 24.92 10.2 50.4 68 4.5 40.2 0
01:18 1015 29.97 844 24.92 9.9 49.8 69 4.4 40 0
01:19 1015 29.97 845 24.95 9.8 49.6 68 4.2 39.6 0
01:20 1015 29.97 844 24.92 9.8 49.6 69 4.4 40 0
01:21 1015 29.97 844 24.92 9.7 49.4 70 4.5 40.1 0
01:22 1015 29.97 844 24.92 9.6 49.3 71 4.5 40.2 0
01:23 1015 29.97 844 24.92 9.5 49.2 70 4.4 39.9 0
01:24 1015 29.97 844 24.92 9.5 49.1 70 4.3 39.8 0
01:25 1015 29.97 844 24.92 9.4 48.9 70 4.2 39.6 0
01:26 1015 29.97 844 24.92 9.4 48.9 70 4.1 39.5 0
01:27 1015 29.97 844 24.92 9.5 49 69 4.2 39.5 0
01:28 1015 29.97 844 24.92 9.5 49.1 69 4.2 39.5 0
01:29 1015 29.97 844 24.92 9.6 49.2 69 4.2 39.6 0
01:30 1015 29.97 844 24.92 9.6 49.3 70 4.4 39.8 0
01:31 1015 29.97 844 24.92 9.4 49 70 4.3 39.7 0
01:32 1015 29.97 844 24.92 9.4 48.9 69 4 39.1 0
01:33 1015 29.97 844 24.92 9.6 49.3 67 3.9 39 0
01:34 1015 29.97 844 24.92 9.8 49.6 68 4.1 39.4 0
01:35 1015 29.97 844 24.92 9.7 49.4 68 4.2 39.5 0
01:36 1015 29.97 844 24.92 9.6 49.3 68 4.1 39.4 0
01:37 1015 29.97 844 24.92 9.6 49.2 69 4.2 39.5 0
01:38 1015 29.97 844 24.92 9.4 49 69 4 39.2 0
01:39 1015 29.97 844 24.92 9.5 49 68 3.9 39 0
01:40 1015 29.97 844 24.92 9.6 49.3 67 3.8 38.8 0
01:41 1015 29.97 844 24.92 9.8 49.7 66 3.9 39 0
01:42 1015 29.97 844 24.92 9.9 49.9 66 3.9 39.1 0
01:43 1015 29.97 844 24.92 10 50 66 4 39.2 0
01:44 1015 29.97 844 24.92 10 50 66 3.9 39 0
01:45 1015 29.97 844 24.92 10.1 50.2 64 3.7 38.7 0
01:46 1015 29.97 844 24.92 10.3 50.6 63 3.6 38.5 0
01:47 1015 29.97 844 24.92 10.6 51.1 61 3.5 38.3 0
01:48 1015 29.97 844 24.92 10.9 51.6 60 3.5 38.4 0
01:49 1015 29.97 844 24.92 11.1 51.9 60 3.6 38.4 0
01:50 1015 29.97 844 24.92 11.2 52.1 60 3.7 38.7 0
01:51 1015 29.97 844 24.92 11.2 52.2 60 3.8 38.8 0
01:52 1015 29.97 844 24.92 11.2 52.2 60 3.8 38.8 0
01:53 1015 29.97 844 24.92 11.2 52.1 59 3.6 38.5 0
01:54 1015 29.97 844 24.92 11.2 52.2 60 3.9 39 0
01:55 1015 29.97 844 24.92 11.1 51.9 61 3.8 38.8 0
01:56 1015 29.97 844 24.92 11 51.8 61 3.7 38.7 0
01:57 1015 29.97 844 24.92 11 51.9 61 3.8 38.8 0
01:58 1015 29.97 844 24.92 11.1 51.9 61 3.8 38.9 0
01:59 1015 29.97 844 24.92 11 51.9 60 3.7 38.6 0
02:00 1015 29.97 844 24.92 11.1 51.9 61 3.9 39 0
02:01 1015 29.97 844 24.92 11 51.8 61 3.8 38.9 0
02:02 1015 29.97 844 24.92 11 51.7 61 3.8 38.9 0
02:03 1015 29.97 844 24.92 10.9 51.6 61 3.7 38.7 0
02:04 1015 29.97 844 24.92 11 51.7 61 3.8 38.8 0
02:05 1015 29.97 844 24.92 10.9 51.7 61 3.8 38.8 0
02:06 1015 29.97 844 24.92 10.9 51.6 61 3.8 38.8 0
02:07 1015 29.97 844 24.92 10.9 51.6 60 3.6 38.4 0
02:08 1015 29.97 844 24.92 11 51.8 61 3.7 38.7 0
02:09 1015 29.97 844 24.92 11 51.8 61 3.8 38.8 0
02:10 1015 29.97 844 24.92 10.8 51.5 62 3.9 39 0
02:11 1015 29.97 844 24.92 10.6 51.1 63 3.9 39 0
02:12 1015 29.97 844 24.92 10.4 50.8 64 3.9 39.1 0
02:13 1015 29.97 844 24.92 10.3 50.5 64 3.8 38.8 0
02:14 1015 29.97 844 24.92 10.2 50.3 65 3.8 38.9 0
02:15 1015 29.97 844 24.92 10.1 50.2 64 3.7 38.6 0
02:16 1015 29.97 844 24.92 10.1 50.1 64 3.6 38.6 0
02:17 1015 29.97 844 24.92 10.1 50.2 64 3.7 38.6 0
02:18 1015 29.97 844 24.92 10.2 50.3 65 3.8 38.9 0
02:19 1015 29.97 844 24.92 10 49.9 66 3.9 39.1 0
02:20 1015 29.97 844 24.92 9.8 49.6 66 3.8 38.9 0
02:21 1015 29.97 844 24.92 9.6 49.3 67 3.7 38.7 0
02:22 1015 29.97 844 24.92 9.6 49.4 67 3.8 38.9 0
02:23 1015 29.97 844 24.92 9.6 49.3 67 3.7 38.7 0
02:24 1015 29.97 844 24.92 9.7 49.5 66 3.7 38.7 0
02:25 1015 29.97 844 24.92 9.7 49.5 66 3.7 38.7 0
02:26 1015 29.97 844 24.92 9.7 49.4 67 3.8 38.8 0
02:27 1015 29.97 844 24.92 9.6 49.2 67 3.7 38.7 0
02:28 1015 29.97 844 24.92 9.5 49 67 3.6 38.5 0
02:29 1015 29.97 844 24.92 9.5 49.1 66 3.6 38.4 0
02:30 1015 29.97 844 24.92 9.6 49.3 65 3.5 38.3 0
02:31 1015 29.97 844 24.92 9.7 49.5 66 3.6 38.5 0
02:32 1015 29.97 844 24.92 9.7 49.5 66 3.7 38.7 0
02:33 1015 29.97 844 24.92 9.6 49.3 66 3.7 38.7 0
02:34 1015 29.97 844 24.92 9.6 49.3 66 3.6 38.6 0
02:35 1015 29.97 844 24.92 9.7 49.5 66 3.7 38.6 0
02:36 1015 29.97 844 24.92 9.8 49.6 66 3.8 38.9 0
02:37 1015 29.97 844 24.92 9.7 49.5 67 3.8 38.9 0
02:38 1015 29.97 844 24.92 9.7 49.4 67 3.8 38.9 0
02:39 1015 29.97 844 24.92 9.7 49.5 66 3.7 38.7 0
02:40 1015 29.97 844 24.92 9.8 49.6 65 3.6 38.5 0
02:41 1015 29.97 844 24.92 9.9 49.7 66 3.7 38.7 0
02:42 1015 29.97 844 24.92 9.8 49.6 66 3.8 38.8 0
02:43 1015 29.97 844 24.92 9.6 49.2 66 3.6 38.5 0
02:44 1015 29.97 844 24.92 9.5 49.1 66 3.6 38.4 0
02:45 1015 29.97 844 24.92 9.5 49.1 66 3.4 38.2 0
02:46 1015 29.97 844 24.92 9.5 49.2 65 3.3 38 0
02:47 1015 29.97 844 24.92 9.6 49.4 65 3.4 38.1 0
02:48 1015 29.97 844 24.92 9.7 49.4 65 3.5 38.3 0
02:49 1015 29.97 844 24.92 9.7 49.4 66 3.6 38.6 0
02:50 1015 29.97 844 24.92 9.6 49.2 67 3.7 38.6 0
02:51 1015 29.97 844 24.92 9.5 49 68 3.8 38.9 0
02:52 1015 29.97 844 24.92 9.3 48.8 69 3.9 39 0
02:53 1015 29.97 844 24.92 9.1 48.4 69 3.8 38.8 0
02:54 1015 29.97 844 24.92 9.1 48.3 68 3.6 38.4 0
02:55 1015 29.97 844 24.92 9.3 48.7 67 3.5 38.3 0
02:56 1015 29.97 844 24.92 9.3 48.8 67 3.6 38.4 0
02:57 1015 29.97 844 24.92 9.3 48.7 67 3.5 38.3 0
02:58 1015 29.97 844 24.92 9.3 48.8 67 3.5 38.4 0
02:59 1015 29.97 844 24.92 9.3 48.8 67 3.4 38.2 0
03:00 1015 29.97 844 24.92 9.3 48.8 66 3.3 38 0
03:01 1015 29.97 844 24.92 9.5 49.1 65 3.3 37.9 0
03:02 1015 29.97 844 24.92 9.7 49.5 65 3.4 38.1 0
03:03 1015 29.97 844 24.92 9.8 49.6 65 3.5 38.3 0
03:04 1015 29.97 844 24.92 9.8 49.6 65 3.5 38.3 0
03:05 1015 29.97 844 24.92 9.8 49.7 64 3.5 38.3 0
03:06 1015 29.97 844 24.92 9.9 49.9 64 3.5 38.4 0
03:07 1015 29.97 844 24.92 9.9 49.9 64 3.6 38.4 0
03:08 1015 29.97 844 24.92 9.9 49.8 64 3.5 38.3 0
03:09 1015 29.97 844 24.92 10 50 63 3.4 38.1 0
03:10 1015 29.97 844 24.92 10.1 50.2 63 3.4 38.2 0
03:11 1015 29.97 844 24.92 10 50.1 63 3.4 38.1 0
03:12 1015 29.97 844 24.92 10 50 64 3.6 38.4 0
03:13 1015 29.97 844 24.92 9.9 49.7 65 3.6 38.4 0
03:14 1015 29.97 844 24.92 9.7 49.5 65 3.6 38.4 0
03:15 1015 29.97 844 24.92 9.7 49.4 65 3.4 38.1 0
03:16 1015 29.97 844 24.92 9.7 49.4 66 3.6 38.5 0
03:17 1015 29.97 844 24.92 9.6 49.3 65 3.3 38 0
03:18 1015 29.97 844 24.92 9.8 49.6 65 3.5 38.4 0
03:19 1015 29.97 844 24.92 9.8 49.6 65 3.5 38.2 0
03:20 1015 29.97 844 24.92 9.8 49.6 65 3.5 38.3 0
03:21 1015 29.97 844 24.92 9.7 49.4 66 3.6 38.5 0
03:22 1015 29.97 844 24.92 9.5 49.2 66 3.6 38.5 0
03:23 1015 29.97 844 24.92 9.4 49 67 3.6 38.4 0
03:24 1015 29.97 844 24.92 9.4 48.8 66 3.4 38.1 0
03:25 1015 29.97 844 24.92 9.4 49 67 3.6 38.4 0
03:26 1015 29.97 844 24.92 9.3 48.8 67 3.6 38.5 0
03:27 1015 29.97 844 24.92 9.2 48.6 67 3.3 38 0
03:28 1015 29.97 844 24.92 9.3 48.7 67 3.5 38.3 0
03:29 1015 29.97 844 24.92 9.3 48.7 67 3.5 38.3 0
03:30 1015 29.97 844 24.92 9.2 48.5 67 3.5 38.3 0
03:31 1015 29.97 844 24.92 9.2 48.6 66 3.3 38 0
03:32 1015 29.97 844 24.92 9.3 48.7 66 3.2 37.8 0
03:33 1015 29.97 844 24.92 9.5 49.1 65 3.3 38 0
03:34 1015 29.97 844 24.92 9.6 49.2 66 3.6 38.5 0
03:35 1015 29.97 844 24.92 9.4 48.9 67 3.6 38.5 0
03:36 1015 29.97 844 24.92 9.2 48.5 67 3.5 38.3 0
03:37 1015 29.97 844 24.92 9.1 48.4 68 3.6 38.5 0
03:38 1015 29.97 844 24.92 9.1 48.3 68 3.6 38.5 0
03:39 1015 29.97 844 24.92 9.1 48.3 68 3.6 38.4 0
03:40 1015 29.97 844 24.92 9.1 48.4 68 3.6 38.4 0
03:41 1015 29.97 844 24.92 9.1 48.5 68 3.5 38.3 0
03:42 1015 29.97 844 24.92 9.2 48.6 67 3.5 38.3 0
03:43 1015 29.97 844 24.92 9.3 48.8 68 3.7 38.6 0
03:44 1015 29.97 844 24.92 9.3 48.7 67 3.4 38.2 0
03:45 1015 29.97 844 24.92 9.3 48.7 67 3.5 38.2 0
03:46 1015 29.97 844 24.92 9.4 48.8 67 3.5 38.4 0
03:47 1015 29.97 844 24.92 9.4 48.9 67 3.7 38.6 0
03:48 1015 29.97 844 24.92 9.2 48.5 68 3.7 38.7 0
03:49 1015 29.97 844 24.92 9.1 48.4 69 3.7 38.6 0
03:50 1015 29.97 844 24.92 9 48.1 69 3.5 38.4 0
03:51 1015 29.97 844 24.92 8.9 48 69 3.6 38.5 0
03:52 1015 29.97 844 24.92 8.8 47.9 70 3.6 38.5 0
03:53 1015 29.97 844 24.92 8.8 47.8 70 3.7 38.6 0
03:54 1015 29.97 844 24.92 8.7 47.6 71 3.8 38.8 0
03:55 1015 29.97 844 24.92 8.4 47.2 73 3.8 38.9 0
03:56 1015 29.97 844 24.92 8.3 46.9 73 3.8 38.8 0
03:57 1015 29.97 844 24.92 8.1 46.6 73 3.7 38.6 0
03:58 1015 29.97 844 24.92 8.1 46.6 73 3.6 38.5 0
03:59 1015 29.97 844 24.92 8.1 46.6 73 3.6 38.4 0
04:00 1015 29.97 844 24.92 8.2 46.7 73 3.6 38.4 0
04:01 1015 29.97 844 24.92 8.2 46.8 73 3.6 38.5 0
04:02 1015 29.97 844 24.92 8.3 46.9 72 3.6 38.5 0
04:03 1015 29.97 844 24.92 8.4 47 71 3.4 38.1 0
04:04 1015 29.97 844 24.92 8.6 47.5 71 3.6 38.5 0
04:05 1015 29.97 844 24.92 8.6 47.6 71 3.6 38.5 0
04:06 1015 29.97 844 24.92 8.7 47.6 70 3.5 38.4 0
04:07 1015 29.97 844 24.92 8.8 47.8 70 3.7 38.7 0
04:08 1015 29.97 844 24.92 8.8 47.9 69 3.5 38.4 0
04:09 1015 29.97 844 24.92 9 48.1 69 3.6 38.5 0
04:10 1015 29.97 844 24.92 9 48.3 69 3.6 38.5 0
04:11 1015 29.97 844 24.92 9.1 48.5 68 3.7 38.6 0
04:12 1015 29.97 844 24.92 9.2 48.5 68 3.7 38.6 0
04:13 1015 29.97 844 24.92 9.2 48.5 69 3.7 38.7 0
04:14 1015 29.97 844 24.92 9.2 48.5 69 3.7 38.6 0
04:15 1015 29.97 844 24.92 9.2 48.6 67 3.5 38.3 0
04:16 1015 29.97 844 24.92 9.4 48.9 67 3.6 38.5 0
04:17 1015 29.97 844 24.92 9.4 48.9 67 3.6 38.5 0
04:18 1015 29.97 844 24.92 9.4 49 67 3.6 38.5 0
04:19 1015 29.97 844 24.92 9.4 49 67 3.7 38.7 0
04:20 1015 29.97 844 24.92 9.4 48.9 67 3.6 38.4 0
04:21 1015 29.97 844 24.92 9.4 49 66 3.5 38.2 0
04:22 1015 29.97 844 24.92 9.6 49.2 65 3.4 38.2 0
04:23 1015 29.97 844 24.92 9.7 49.5 65 3.5 38.3 0
04:24 1015 29.97 844 24.92 9.7 49.4 65 3.6 38.4 0
04:25 1015 29.97 844 24.92 9.7 49.4 65 3.5 38.3 0
04:26 1015 29.97 844 24.92 9.7 49.4 66 3.6 38.4 0
04:27 1015 29.97 844 24.92 9.6 49.3 65 3.5 38.3 0
04:28 1015 29.97 844 24.92 9.6 49.3 66 3.6 38.4 0
04:29 1015 29.97 844 24.92 9.6 49.3 67 3.7 38.7 0
04:30 1015 29.97 844 24.92 9.5 49 68 3.8 38.9 0
04:31 1015 29.97 844 24.92 9.3 48.7 69 3.8 38.9 0
04:32 1015 29.97 844 24.92 9.1 48.4 69 3.8 38.8 0
04:33 1015 29.97 844 24.92 9 48.1 69 3.7 38.6 0
04:34 1015 29.97 844 24.92 8.9 48 70 3.8 38.8 0
04:35 1015 29.97 844 24.92 8.8 47.8 71 3.8 38.8 0
04:36 1015 29.97 844 24.92 8.7 47.6 71 3.8 38.9 0
04:37 1015 29.97 844 24.92 8.6 47.5 71 3.7 38.7 0
04:38 1015 29.97 844 24.92 8.6 47.6 71 3.8 38.8 0
04:39 1015 29.97 844 24.92 8.6 47.5 72 3.8 38.9 0
04:40 1015 29.97 844 24.92 8.5 47.3 72 3.8 38.9 0
04:41 1015 29.97 844 24.92 8.4 47.2 72 3.7 38.6 0
04:42 1015 29.97 844 24.92 8.5 47.2 71 3.5 38.3 0
04:43 1015 29.97 844 24.92 8.7 47.6 70 3.6 38.4 0
04:44 1015 29.97 844 24.92 8.8 47.8 69 3.5 38.4 0
04:45 1015 29.97 844 24.92 9 48.1 70 3.7 38.7 0
04:46 1015 29.97 844 24.92 9 48.2 69 3.7 38.6 0
04:47 1015 29.97 844 24.92 9 48.1 69 3.6 38.5 0
04:48 1015 29.97 844 24.92 9 48.1 69 3.6 38.5 0
04:49 1015 29.97 844 24.92 9 48.2 68 3.5 38.2 0
04:50 1015 29.97 844 24.92 9.1 48.3 67 3.4 38.1 0
04:51 1015 29.97 844 24.92 9.2 48.5 66 3.3 37.9 0
04:52 1015 29.97 844 24.92 9.3 48.7 65 3.1 37.7 0
04:53 1015 29.97 844 24.92 9.5 49.1 64 3.1 37.6 0
04:54 1015 29.97 844 24.92 9.8 49.6 63 3.1 37.7 0
04:55 1015 29.97 844 24.92 10 50 63 3.3 37.9 0
04:56 1015 29.97 844 24.92 10.2 50.3 63 3.4 38.1 0
04:57 1015 29.97 844 24.92 10.2 50.3 63 3.5 38.3 0
04:58 1015 29.97 844 24.92 10.2 50.4 62 3.4 38.1 0
04:59 1015 29.97 844 24.92 10.3 50.5 63 3.4 38.2 0
05:00 1015 29.97 844 24.92 10.2 50.3 63 3.6 38.4 0
05:01 1015 29.97 844 24.92 10 50 64 3.6 38.4 0
05:02 1015 29.97 844 24.92 9.9 49.8 65 3.6 38.4 0
05:03 1015 29.97 844 24.92 9.9 49.8 65 3.6 38.5 0
05:04 1015 29.97 844 24.92 9.8 49.7 65 3.7 38.6 0
05:05 1015 29.97 844 24.92 9.7 49.5 66 3.6 38.5 0
05:06 1015 29.97 844 24.92 9.7 49.4 64 3.3 37.9 0
05:07 1015 29.97 844 24.92 9.8 49.6 63 3.1 37.6 0
05:08 1015 29.97 844 24.92 10 50 63 3.3 37.9 0
05:09 1015 29.97 844 24.92 10 50 63 3.4 38.1 0
05:10 1015 29.97 844 24.92 9.9 49.9 64 3.6 38.4 0
05:11 1015 29.97 844 24.92 9.8 49.6 65 3.5 38.4 0
05:12 1015 29.97 844 24.92 9.6 49.4 65 3.4 38.2 0
05:13 1015 29.97 844 24.92 9.6 49.3 65 3.3 37.9 0
05:14 1015 29.97 844 24.92 9.6 49.2 65 3.4 38.1 0
05:15 1015 29.97 844 24.92 9.5 49.2 65 3.4 38.1 0
05:16 1015 29.97 844 24.92 9.5 49 65 3.3 38 0
05:17 1015 29.97 844 24.92 9.4 48.9 65 3.2 37.7 0
05:18 1015 29.97 844 24.92 9.4 49 64 3 37.3 0
05:19 1015 29.97 844 24.92 9.6 49.2 63 3 37.4 0
05:20 1015 29.97 844 24.92 9.7 49.4 62 2.9 37.2 0
05:21 1015 29.97 844 24.92 9.9 49.7 61 2.7 36.8 0
05:22 1015 29.97 844 24.92 9.9 49.9 61 2.7 36.9 0
05:23 1015 29.97 844 24.92 10 50 60 2.7 36.8 0
05:24 1015 29.97 844 24.92 10.1 50.1 59 2.5 36.6 0
05:25 1015 29.97 844 24.92 10.3 50.5 58 2.4 36.4 0
05:26 1015 29.97 844 24.92 10.5 50.8 57 2.3 36.1 0
05:27 1015 29.97 844 24.92 10.7 51.2 55 2 35.7 0
05:28 1015 29.97 844 24.92 11 51.7 53 1.7 35.1 0
05:29 1015 29.97 844 24.92 11.3 52.4 50 1.5 34.6 0
05:30 1015 29.97 844 24.92 11.8 53.3 48 1.3 34.4 0
05:31 1015 29.97 844 24.92 12.4 54.2 48 1.6 34.9 0
05:32 1015 29.97 844 24.92 12.6 54.6 48 1.8 35.3 0
05:33 1015 29.97 844 24.92 12.4 54.3 54 3.4 38.2 0
05:34 1015 29.97 844 24.92 11.4 52.6 55 2.7 36.9 0
05:35 1015 29.97 844 24.92 11.1 52 54 2.2 35.9 0
05:36 1015 29.97 844 24.92 11.2 52.1 54 2.2 35.9 0
05:37 1015 29.97 844 24.92 11.3 52.3 53 2.1 35.7 0
05:38 1015 29.97 844 24.92 11.4 52.5 52 2 35.5 0
05:39 1015 29.97 844 24.92 11.6 52.8 53 2.4 36.3 0
05:40 1015 29.97 844 24.92 11.3 52.4 55 2.6 36.6 0
05:41 1015 29.97 844 24.92 10.9 51.5 56 2.5 36.5 0
05:42 1015 29.97 844 24.92 10.4 50.8 59 2.9 37.2 0
05:43 1014 29.94 844 24.92 9.7 49.4 62 2.7 36.9 0
05:44 1015 29.97 844 24.92 9.3 48.8 64 2.9 37.2 0
05:45 1015 29.97 844 24.92 8.9 48.1 66 2.9 37.2 0
05:46 1015 29.97 844 24.92 8.7 47.7 66 2.7 36.9 0
05:47 1014 29.94 844 24.92 8.8 47.9 65 2.7 36.8 0
05:48 1015 29.97 844 24.92 8.8 47.9 65 2.6 36.7 0
05:49 1014 29.94 844 24.92 8.9 48 66 2.8 37.1 0
05:50 1014 29.94 844 24.92 8.8 47.9 65 2.6 36.7 0
05:51 1014 29.94 844 24.92 8.9 48 64 2.5 36.4 0
05:52 1014 29.94 844 24.92 9.2 48.5 62 2.4 36.3 0
05:53 1014 29.94 844 24.92 9.3 48.8 62 2.5 36.5 0
05:54 1014 29.94 844 24.92 9.5 49.2 61 2.5 36.5 0
05:55 1014 29.94 844 24.92 9.7 49.4 60 2.4 36.3 0
05:56 1014 29.94 844 24.92 9.8 49.7 58 2.1 35.8 0
05:57 1014 29.94 844 24.92 10.1 50.1 59 2.4 36.4 0
05:58 1014 29.94 844 24.92 10.1 50.1 60 2.8 37 0
05:59 1014 29.94 844 24.92 9.6 49.3 62 2.7 36.9 0
06:00 1014 29.94 844 24.92 9.4 49 62 2.6 36.7 0
06:01 1014 29.94 844 24.92 9.3 48.7 64 2.9 37.2 0
06:02 1014 29.94 844 24.92 9 48.1 65 2.9 37.2 0
06:03 1014 29.94 844 24.92 8.6 47.5 68 3 37.3 0
06:04 1014 29.94 844 24.92 8.3 46.9 70 3.2 37.7 0
06:05 1014 29.94 844 24.92 8.1 46.5 71 3.1 37.5 0
06:06 1014 29.94 844 24.92 7.9 46.2 71 3 37.5 0
06:07 1014 29.94 844 24.92 7.8 46.1 72 3.1 37.5 0
06:08 1014 29.94 844 24.92 7.8 46 70 2.7 36.8 0
06:09 1014 29.94 844 24.92 7.8 46.1 68 2.3 36.1 0
06:10 1015 29.97 844 24.92 8.1 46.7 67 2.3 36.2 0
06:11 1015 29.97 844 24.92 8.6 47.4 64 2.2 36 0
06:12 1015 29.97 844 24.92 9 48.1 61 1.9 35.4 0
06:13 1014 29.94 844 24.92 9.5 49 59 1.8 35.2 0
06:14 1014 29.94 844 24.92 9.9 49.9 57 1.8 35.3 0
06:15 1014 29.94 844 24.92 10 50 60 2.7 36.9 0
06:16 1014 29.94 844 24.92 9.3 48.7 65 3 37.4 0
06:17 1014 29.94 844 24.92 8.5 47.3 68 3 37.3 0
06:18 1014 29.94 844 24.92 8 46.3 70 2.9 37.2 0
06:19 1014 29.94 844 24.92 7.7 45.9 70 2.6 36.6 0
06:20 1014 29.94 844 24.92 7.8 46.1 68 2.4 36.3 0
06:21 1014 29.94 844 24.92 7.9 46.1 69 2.6 36.7 0
06:22 1014 29.94 844 24.92 7.6 45.7 71 2.7 36.8 0
06:23 1014 29.94 844 24.92 7.3 45.2 72 2.7 36.9 0
06:24 1014 29.94 844 24.92 7.1 44.8 74 2.8 37 0
06:25 1014 29.94 844 24.92 6.9 44.4 75 2.8 37 0
06:26 1015 29.97 844 24.92 6.8 44.3 76 2.8 37.1 0
06:27 1014 29.94 844 24.92 6.7 44 76 2.7 36.9 0
06:28 1015 29.97 844 24.92 6.6 43.9 76 2.7 36.9 0
06:29 1014 29.94 844 24.92 6.5 43.7 76 2.7 36.8 0
06:30 1014 29.94 844 24.92 6.5 43.7 76 2.7 36.8 0
06:31 1014 29.94 844 24.92 6.5 43.7 77 2.7 36.9 0
06:32 1014 29.94 844 24.92 6.4 43.5 77 2.7 36.9 0
06:33 1014 29.94 844 24.92 6.4 43.4 77 2.6 36.8 0
06:34 1014 29.94 844 24.92 6.5 43.6 77 2.7 36.8 0
06:35 1014 29.94 844 24.92 6.6 43.8 77 2.8 37 0
06:36 1014 29.94 844 24.92 6.5 43.6 77 2.8 37 0
06:37 1014 29.94 844 24.92 6.4 43.5 78 2.8 37.1 0
06:38 1014 29.94 844 24.92 6.4 43.5 78 2.8 37 0
06:39 1014 29.94 844 24.92 6.5 43.7 77 2.8 37 0
06:40 1014 29.94 844 24.92 6.6 43.9 77 2.8 37.1 0
06:41 1014 29.94 844 24.92 6.7 44 77 2.9 37.2 0
06:42 1014 29.94 844 24.92 6.7 44.1 77 3 37.4 0
06:43 1014 29.94 844 24.92 6.7 44.1 76 2.9 37.2 0
06:44 1014 29.94 844 24.92 6.9 44.4 76 3 37.3 0
06:45 1014 29.94 844 24.92 7 44.6 74 2.7 36.8 0
06:46 1014 29.94 844 24.92 7.5 45.4 72 2.7 36.9 0
06:47 1014 29.94 844 24.92 7.7 45.9 72 2.9 37.3 0
06:48 1015 29.97 844 24.92 7.8 46 72 3.1 37.6 0
06:49 1015 29.97 844 24.92 7.8 46 72 3.1 37.6 0
06:50 1014 29.94 844 24.92 7.7 45.9 72 3 37.5 0
06:51 1014 29.94 844 24.92 7.8 46 72 3 37.4 0
06:52 1014 29.94 844 24.92 7.8 46.1 71 3 37.3 0
06:53 1014 29.94 844 24.92 7.9 46.3 71 3 37.5 0
06:54 1014 29.94 844 24.92 8 46.4 71 3.1 37.5 0
06:55 1014 29.94 844 24.92 8.1 46.5 71 3.2 37.8 0
06:56 1014 29.94 844 24.92 8 46.4 72 3.3 38 0
06:57 1014 29.94 844 24.92 8 46.4 72 3.3 38 0
06:58 1014 29.94 844 24.92 8 46.4 72 3.3 38 0
06:59 1014 29.94 844 24.92 8.1 46.5 72 3.4 38 0
07:00 1014 29.94 844 24.92 8.1 46.6 72 3.4 38.1 0
07:01 1014 29.94 844 24.92 8.2 46.8 72 3.5 38.2 0
07:02 1014 29.94 843 24.89 8.3 46.9 71 3.4 38.2 0
07:03 1014 29.94 843 24.89 8.3 46.9 72 3.6 38.4 0
07:04 1014 29.94 843 24.89 8.3 46.9 72 3.6 38.5 0
07:05 1014 29.94 843 24.89 8.2 46.8 73 3.7 38.6 0
07:06 1014 29.94 844 24.92 8.1 46.6 74 3.8 38.8 0
07:07 1014 29.94 844 24.92 8.1 46.5 74 3.8 38.8 0
07:08 1014 29.94 844 24.92 8 46.5 74 3.7 38.6 0
07:09 1014 29.94 844 24.92 8 46.5 74 3.6 38.5 0
07:10 1014 29.94 844 24.92 8.1 46.6 73 3.6 38.4 0
07:11 1014 29.94 844 24.92 8.2 46.7 72 3.5 38.3 0
07:12 1014 29.94 844 24.92 8.3 47 71 3.4 38.1 0
07:13 1014 29.94 844 24.92 8.5 47.2 71 3.5 38.3 0
07:14 1014 29.94 844 24.92 8.6 47.4 70 3.5 38.3 0
07:15 1014 29.94 844 24.92 8.7 47.6 70 3.5 38.3 0
07:16 1014 29.94 844 24.92 8.7 47.7 70 3.5 38.4 0
07:17 1014 29.94 844 24.92 8.8 47.8 69 3.5 38.3 0
07:18 1014 29.94 844 24.92 8.8 47.9 69 3.5 38.3 0
07:19 1014 29.94 844 24.92 9 48.1 68 3.3 38 0
07:20 1014 29.94 844 24.92 9.2 48.5 67 3.3 38 0
07:21 1014 29.94 844 24.92 9.4 48.9 66 3.4 38.2 0
07:22 1014 29.94 844 24.92 9.6 49.3 65 3.5 38.2 0
07:23 1014 29.94 844 24.92 9.8 49.6 65 3.4 38.2 0
07:24 1014 29.94 844 24.92 10 50.1 63 3.4 38.1 0
07:25 1014 29.94 844 24.92 10.3 50.5 61 3.1 37.5 0
07:26 1014 29.94 844 24.92 10.7 51.2 58 2.7 36.9 0
07:27 1014 29.94 844 24.92 11.1 51.9 59 3.3 37.9 0
07:28 1014 29.94 844 24.92 11.3 52.3 58 3.3 38 0
07:29 1014 29.94 844 24.92 11.5 52.6 58 3.5 38.3 0
07:30 1014 29.94 844 24.92 11.6 52.8 58 3.6 38.4 0
07:31 1014 29.94 844 24.92 11.7 53.1 58 3.7 38.7 0
07:32 1014 29.94 844 24.92 11.8 53.2 59 4 39.2 0
07:33 1014 29.94 844 24.92 11.9 53.5 58 4.1 39.3 0
07:34 1014 29.94 844 24.92 12 53.7 58 4 39.2 0
07:35 1014 29.94 844 24.92 12.1 53.8 58 4.1 39.5 0
07:36 1014 29.94 844 24.92 12.2 53.9 57 4 39.3 0
07:37 1014 29.94 844 24.92 12.3 54.2 56 3.8 38.8 0
07:38 1014 29.94 844 24.92 12.4 54.4 59 4.6 40.4 0
07:39 1014 29.94 844 24.92 12.5 54.5 60 5.1 41.2 0
07:40 1014 29.94 843 24.89 12.6 54.7 60 5.1 41.2 0
07:41 1014 29.94 843 24.89 12.7 54.9 60 5.2 41.4 0
07:42 1014 29.94 843 24.89 12.8 55 59 5.1 41.1 0
07:43 1014 29.94 843 24.89 12.9 55.2 59 5 41.1 0
07:44 1014 29.94 843 24.89 13 55.4 59 5.4 41.7 0
07:45 1014 29.94 843 24.89 13.2 55.7 57 5 40.9 0
07:46 1014 29.94 843 24.89 13.3 55.9 58 5.3 41.6 0
07:47 1014 29.94 843 24.89 13.4 56.2 56 4.8 40.6 0
07:48 1014 29.94 843 24.89 13.7 56.6 57 5.4 41.7 0
07:49 1014 29.94 843 24.89 13.8 56.8 57 5.5 42 0
07:50 1014 29.94 843 24.89 14 57.1 56 5.4 41.8 0
07:51 1014 29.94 843 24.89 14.1 57.3 57 5.9 42.6 0
07:52 1014 29.94 843 24.89 14.1 57.5 54 5.1 41.1 0
07:53 1014 29.94 843 24.89 14.4 57.8 54 5.3 41.5 0
07:54 1014 29.94 843 24.89 14.6 58.4 46 3.3 38 0
07:55 1014 29.94 843 24.89 15 58.9 49 4.4 39.9 0
07:56 1014 29.94 843 24.89 15.3 59.5 45 3.5 38.3 0
07:57 1014 29.94 843 24.89 15.5 60 41 2.6 36.7 0
07:58 1014 29.94 843 24.89 15.8 60.4 43 3.3 38 0
07:59 1014 29.94 843 24.89 16 60.7 45 4 39.2 0
08:00 1014 29.94 843 24.89 16.1 61 43 3.5 38.4 0
08:01 1014 29.94 843 24.89 16.3 61.3 43 3.8 38.9 0
08:02 1014 29.94 843 24.89 16.4 61.6 39 2.6 36.7 0
08:03 1014 29.94 843 24.89 16.5 61.8 43 3.9 39.1 0
08:04 1014 29.94 843 24.89 16.7 62 45 4.7 40.5 0
08:05 1014 29.94 843 24.89 16.7 62.1 45 4.8 40.6 0
08:06 1014 29.94 843 24.89 16.8 62.2 47 5.4 41.8 0
08:07 1014 29.94 843 24.89 16.9 62.3 43 4.3 39.8 0
08:08 1014 29.94 843 24.89 16.9 62.4 45 4.9 40.8 0
08:09 1014 29.94 843 24.89 16.9 62.5 50 6.5 43.7 0
08:10 1014 29.94 843 24.89 17 62.6 42 4.2 39.6 0
08:11 1014 29.94 843 24.89 17.1 62.8 44 5 41 0
08:12 1014 29.94 843 24.89 17.2 63 45 5.2 41.4 0
08:13 1014 29.94 843 24.89 17.4 63.3 39 3.5 38.3 0
08:14 1014 29.94 843 24.89 17.5 63.6 41 4.2 39.6 0
08:15 1014 29.94 843 24.89 17.7 63.8 42 4.9 40.8 0
08:16 1014 29.94 843 24.89 17.8 64 42 4.8 40.7 0
08:17 1014 29.94 843 24.89 17.8 64.1 47 6.6 43.8 0
08:18 1014 29.94 843 24.89 17.8 64.1 46 6.3 43.4 0
08:19 1014 29.94 843 24.89 17.9 64.3 40 4.2 39.5 0
08:20 1014 29.94 843 24.89 18 64.4 39 3.9 39.1 0
08:21 1014 29.94 843 24.89 18.2 64.7 40 4.4 40 0
08:22 1014 29.94 843 24.89 18.2 64.8 38 3.9 39 0
08:23 1014 29.94 843 24.89 18.3 64.9 38 3.7 38.7 0
08:24 1014 29.94 843 24.89 18.5 65.3 37 3.6 38.4 0
08:25 1014 29.94 843 24.89 18.6 65.5 42 5.5 41.9 0
08:26 1014 29.94 843 24.89 18.8 65.8 35 3.3 37.9 0
08:27 1014 29.94 843 24.89 18.9 66.1 35 3.3 37.9 0
08:28 1014 29.94 843 24.89 19 66.2 41 5.6 42 0
08:29 1014 29.94 843 24.89 19.1 66.5 41 5.9 42.6 0
08:30 1014 29.94 843 24.89 19.3 66.7 34 3.4 38.1 0
08:31 1014 29.94 843 24.89 19.4 66.8 36 4.2 39.6 0
08:32 1014 29.94 843 24.89 19.5 67.1 39 5.2 41.3 0
08:33 1014 29.94 843 24.89 19.6 67.3 41 6.3 43.4 0
08:34 1014 29.94 843 24.89 19.7 67.4 33 3.2 37.7 0
08:35 1014 29.94 843 24.89 19.8 67.6 35 4.1 39.4 0
08:36 1014 29.94 843 24.89 19.8 67.6 40 5.8 42.5 0
08:37 1014 29.94 843 24.89 19.9 67.8 37 4.8 40.6 0
08:38 1014 29.94 843 24.89 19.9 67.8 32 2.8 37 0
08:39 1014 29.94 843 24.89 20 68 34 3.8 38.9 0
08:40 1014 29.94 843 24.89 20.1 68.1 34 3.8 38.9 0
08:41 1014 29.94 843 24.89 20.2 68.3 31 2.7 36.8 0
08:42 1014 29.94 843 24.89 20.3 68.5 38 5.7 42.3 0
08:43 1014 29.94 843 24.89 20.2 68.4 34 4 39.2 0
08:44 1014 29.94 843 24.89 20.3 68.5 33 3.8 38.8 0
08:45 1014 29.94 843 24.89 20.3 68.5 33 3.5 38.3 0
08:46 1014 29.94 843 24.89 20.2 68.3 34 3.8 38.8 0
08:47 1014 29.94 843 24.89 20.1 68.3 34 3.8 38.9 0
08:48 1013 29.91 843 24.89 20.2 68.3 34 4 39.1 0
08:49 1013 29.91 843 24.89 20.2 68.4 35 4.4 39.9 0
08:50 1014 29.94 843 24.89 20.2 68.4 42 7.1 44.7 0
08:51 1013 29.91 843 24.89 20.2 68.4 39 5.9 42.7 0
08:52 1013 29.91 843 24.89 20.2 68.3 43 7.4 45.2 0
08:53 1013 29.91 843 24.89 20.2 68.3 36 4.6 40.3 0
08:54 1013 29.91 843 24.89 20.2 68.4 37 5.3 41.6 0
08:55 1013 29.91 843 24.89 20.2 68.4 37 5.3 41.6 0
08:56 1013 29.91 843 24.89 20.2 68.4 37 5 41.1 0
08:57 1013 29.91 843 24.89 20.2 68.4 38 5.6 42.1 0
08:58 1013 29.91 843 24.89 20.3 68.5 37 5.2 41.3 0
08:59 1013 29.91 843 24.89 20.3 68.5 40 6.2 43.2 0
09:00 1013 29.91 843 24.89 20.2 68.4 43 7.5 45.6 0
09:01 1013 29.91 843 24.89 20.2 68.3 40 6.2 43.2 0
09:02 1013 29.91 843 24.89 20.2 68.3 38 5.5 42 0
09:03 1013 29.91 843 24.89 20.2 68.3 42 7 44.6 0
09:04 1013 29.91 843 24.89 20.1 68.2 42 7.1 44.8 0
09:05 1013 29.91 843 24.89 20.1 68.2 42 6.9 44.4 0
09:06 1013 29.91 843 24.89 20 68.1 42 6.8 44.3 0
09:07 1013 29.91 843 24.89 20 68 47 8.3 47 0
09:08 1013 29.91 843 24.89 19.9 67.8 46 8.1 46.7 0
09:09 1013 29.91 843 24.89 19.8 67.6 48 8.6 47.4 0
09:10 1013 29.91 843 24.89 19.8 67.6 48 8.7 47.6 0
09:11 1013 29.91 843 24.89 19.7 67.4 49 8.7 47.7 0
09:12 1013 29.91 842 24.86 19.6 67.3 52 9.5 49.1 0
09:13 1013 29.91 842 24.86 19.5 67.1 53 9.9 49.8 0
09:14 1013 29.91 842 24.86 19.5 67.2 53 9.8 49.6 0
09:15 1013 29.91 842 24.86 19.6 67.3 54 10.2 50.3 0
09:16 1013 29.91 842 24.86 19.7 67.5 48 8.6 47.5 0
09:17 1013 29.91 842 24.86 19.9 67.8 51 9.6 49.3 0
09:18 1013 29.91 842 24.86 20.1 68.1 51 9.7 49.5 0
09:19 1013 29.91 842 24.86 20.2 68.4 46 8.4 47.2 0
09:20 1013 29.91 842 24.86 20.3 68.6 47 8.6 47.6 0
09:21 1013 29.91 842 24.86 20.5 68.9 42 7.3 45.1 0
09:22 1013 29.91 842 24.86 20.6 69.2 45 8.5 47.3 0
09:23 1013 29.91 842 24.86 20.7 69.3 41 7.2 44.9 0
09:24 1013 29.91 842 24.86 20.9 69.5 40 6.8 44.2 0
09:25 1013 29.91 842 24.86 20.9 69.7 45 8.7 47.7 0
09:26 1013 29.91 842 24.86 21 69.8 40 7.1 44.8 0
09:27 1013 29.91 842 24.86 21.2 70.1 41 7.6 45.7 0
09:28 1013 29.91 842 24.86 21.3 70.3 40 7.4 45.4 0
09:29 1013 29.91 842 24.86 21.4 70.6 38 6.7 44.1 0
09:30 1013 29.91 842 24.86 21.6 70.9 35 5.8 42.5 0
09:31 1013 29.91 842 24.86 21.8 71.2 39 7.2 45 0
09:32 1013 29.91 842 24.86 21.9 71.4 34 5.5 42 0
09:33 1013 29.91 842 24.86 21.9 71.4 34 5.6 42.1 0
09:34 1013 29.91 842 24.86 21.9 71.4 36 6.2 43.2 0
09:35 1013 29.91 842 24.86 21.9 71.4 33 5.1 41.1 0
09:36 1013 29.91 842 24.86 21.9 71.4 35 6 42.8 0
09:37 1013 29.91 842 24.86 21.9 71.4 36 6.1 43 0
09:38 1013 29.91 842 24.86 21.8 71.2 33 5.1 41.2 0
09:39 1013 29.91 842 24.86 21.7 71.1 34 5.4 41.8 0
09:40 1013 29.91 842 24.86 21.7 71 35 5.9 42.7 0
09:41 1013 29.91 842 24.86 21.6 70.9 35 5.8 42.4 0
09:42 1013 29.91 842 24.86 21.6 70.9 38 6.8 44.3 0
09:43 1013 29.91 842 24.86 21.5 70.8 36 6.2 43.1 0
09:44 1013 29.91 842 24.86 21.6 70.8 40 7.7 45.9 0
09:45 1013 29.91 842 24.86 21.6 70.8 36 6.1 43 0
09:46 1013 29.91 842 24.86 21.6 70.9 39 7 44.7 0
09:47 1013 29.91 842 24.86 21.7 71 38 6.9 44.4 0
09:48 1013 29.91 842 24.86 21.7 71 37 6.6 43.9 0
09:49 1013 29.91 842 24.86 21.8 71.2 38 6.9 44.4 0
09:50 1013 29.91 842 24.86 21.8 71.3 35 5.9 42.6 0
09:51 1013 29.91 842 24.86 21.9 71.4 38 7.2 44.9 0
09:52 1013 29.91 842 24.86 21.9 71.4 39 7.6 45.7 0
09:53 1013 29.91 842 24.86 21.9 71.4 42 8.4 47.2 0
09:54 1013 29.91 842 24.86 21.8 71.2 38 7.1 44.7 0
09:55 1013 29.91 842 24.86 21.8 71.3 37 6.9 44.3 0
09:56 1013 29.91 842 24.86 21.8 71.3 43 9 48.1 0
09:57 1013 29.91 842 24.86 21.9 71.4 38 7.2 45 0
09:58 1013 29.91 842 24.86 21.9 71.5 43 8.9 48 0
09:59 1013 29.91 842 24.86 22.1 71.8 39 7.8 46 0
10:00 1013 29.91 842 24.86 22.2 72 32 5.1 41.1 0
10:01 1013 29.91 842 24.86 22.4 72.2 37 7.2 44.9 0
10:02 1013 29.91 842 24.86 22.6 72.6 35 6.5 43.7 0
10:03 1013 29.91 842 24.86 22.8 73.1 32 5.3 41.6 0
10:04 1013 29.91 842 24.86 22.9 73.2 30 4.6 40.3 0
10:05 1013 29.91 842 24.86 23 73.4 33 5.9 42.6 0
10:06 1013 29.91 842 24.86 23 73.5 38 8.3 46.9 0
10:07 1013 29.91 842 24.86 23.1 73.6 30 4.6 40.3 0
10:08 1013 29.91 842 24.86 23.1 73.6 38 8.4 47.1 0
10:09 1013 29.91 842 24.86 23.2 73.7 39 8.5 47.3 0
10:10 1013 29.91 842 24.86 23.2 73.7 35 7 44.7 0
10:11 1013 29.91 842 24.86 23.3 73.9 31 5.4 41.7 0
10:12 1013 29.91 842 24.86 23.3 73.9 36 7.6 45.8 0
10:13 1013 29.91 842 24.86 23.4 74.1 46 11.2 52.1 0
10:14 1013 29.91 842 24.86 23.6 74.4 32 6.3 43.4 0
10:15 1013 29.91 842 24.86 23.7 74.6 32 6.4 43.5 0
10:16 1013 29.91 842 24.86 23.7 74.7 30 5.5 41.9 0
10:17 1013 29.91 842 24.86 23.8 74.9 35 7.7 45.8 0
10:18 1013 29.91 842 24.86 24 75.1 37 8.7 47.7 0
10:19 1013 29.91 842 24.86 24 75.3 39 9.5 49.2 0
10:20 1013 29.91 842 24.86 24.1 75.3 33 7.1 44.8 0
10:21 1013 29.91 842 24.86 23.9 75.1 31 5.9 42.6 0
10:22 1013 29.91 842 24.86 23.9 75 29 5.2 41.4 0
10:23 1013 29.91 842 24.86 23.9 74.9 36 8.2 46.8 0
10:24 1013 29.91 842 24.86 23.9 75 39 9.3 48.7 0
10:25 1013 29.91 842 24.86 23.8 74.8 37 8.4 47.2 0
10:26 1013 29.91 842 24.86 23.7 74.7 41 9.9 49.9 0
10:27 1013 29.91 842 24.86 23.7 74.6 39 9.3 48.7 0
10:28 1013 29.91 842 24.86 23.7 74.6 37 8.2 46.8 0
10:29 1013 29.91 842 24.86 23.6 74.4 41 9.7 49.5 0
10:30 1013 29.91 842 24.86 23.5 74.2 39 8.8 47.8 0
10:31 1013 29.91 842 24.86 23.4 74.1 38 8.5 47.3 0
10:32 1013 29.91 842 24.86 23.3 74 37 7.9 46.3 0
10:33 1013 29.91 842 24.86 23.3 74 40 9.3 48.7 0
10:34 1013 29.91 842 24.86 23.3 74 44 10.5 50.8 0
10:35 1013 29.91 842 24.86 23.4 74 35 7.2 44.9 0
10:36 1013 29.91 842 24.86 23.4 74.1 38 8.5 47.3 0
10:37 1013 29.91 842 24.86 23.4 74.2 36 7.8 46 0
10:38 1013 29.91 842 24.86 23.5 74.3 38 8.4 47.2 0
10:39 1013 29.91 842 24.86 23.7 74.6 35 7.4 45.3 0
10:40 1013 29.91 842 24.86 23.8 74.9 37 8.3 47 0
10:41 1013 29.91 842 24.86 24 75.2 39 9.2 48.6 0
10:42 1012 29.88 842 24.86 24.1 75.5 45 11.7 53 0
10:43 1012 29.88 842 24.86 24.2 75.5 42 10.7 51.2 0
10:44 1012 29.88 842 24.86 24.1 75.4 33 7.1 44.8 0
10:45 1012 29.88 842 24.86 24.1 75.3 37 8.5 47.3 0
10:46 1012 29.88 842 24.86 24.1 75.3 35 7.8 46.1 0
10:47 1012 29.88 842 24.86 24 75.3 43 11 51.7 0
10:48 1012 29.88 842 24.86 24 75.3 39 9.5 49.2 0
10:49 1012 29.88 842 24.86 24 75.1 43 10.8 51.4 0
10:50 1012 29.88 842 24.86 23.8 74.9 42 10.3 50.5 0
10:51 1012 29.88 842 24.86 23.6 74.5 43 10.7 51.2 0
10:52 1012 29.88 842 24.86 23.5 74.2 45 10.9 51.6 0
10:53 1012 29.88 842 24.86 23.3 74 48 11.9 53.5 0
10:54 1012 29.88 842 24.86 23.1 73.5 44 10.2 50.4 0
10:55 1012 29.88 842 24.86 22.9 73.2 45 10.6 51.1 0
10:56 1012 29.88 842 24.86 22.8 73 43 9.8 49.6 0
10:57 1012 29.88 842 24.86 22.7 72.8 48 11.4 52.5 0
10:58 1012 29.88 842 24.86 22.6 72.7 48 11.3 52.4 0
10:59 1012 29.88 842 24.86 22.7 72.8 51 12 53.7 0
11:00 1012 29.88 842 24.86 22.8 73.1 44 10.2 50.3 0
11:01 1012 29.88 842 24.86 23.1 73.6 41 9.5 49.1 0
11:02 1012 29.88 841 24.83 23.4 74.1 34 7 44.6 0
11:03 1012 29.88 841 24.83 23.7 74.6 45 11.2 52.2 0
11:04 1012 29.88 841 24.83 23.9 75 33 6.8 44.2 0
11:05 1012 29.88 841 24.83 24.1 75.4 34 7.5 45.5 0
11:06 1012 29.88 841 24.83 24.3 75.7 40 9.8 49.7 0
11:07 1012 29.88 842 24.86 24.4 75.9 45 12 53.6 0
11:08 1012 29.88 841 24.83 24.5 76.2 42 10.8 51.5 0
11:09 1012 29.88 841 24.83 24.7 76.5 37 9.3 48.8 0
11:10 1012 29.88 841 24.83 24.8 76.6 42 11.1 52 0
11:11 1012 29.88 841 24.83 24.9 76.7 36 9 48.3 0
11:12 1012 29.88 841 24.83 24.9 76.8 32 7.1 44.9 0
11:13 1012 29.88 841 24.83 24.8 76.7 39 10.3 50.6 0
11:14 1012 29.88 841 24.83 24.8 76.6 37 9.3 48.7 0
11:15 1012 29.88 841 24.83 24.7 76.5 38 9.6 49.3 0
11:16 1012 29.88 841 24.83 24.7 76.5 34 8 46.5 0
11:17 1012 29.88 841 24.83 24.8 76.7 32 7.4 45.3 0
11:18 1012 29.88 841 24.83 24.7 76.5 39 10 50 0
11:19 1012 29.88 841 24.83 24.7 76.5 39 10.3 50.5 0
11:20 1012 29.88 841 24.83 24.7 76.5 36 8.7 47.7 0
11:21 1012 29.88 841 24.83 24.7 76.4 35 8.4 47.1 0
11:22 1012 29.88 841 24.83 24.7 76.4 31 6.8 44.3 0
11:23 1012 29.88 841 24.83 24.7 76.4 38 9.5 49 0
11:24 1012 29.88 841 24.83 24.7 76.4 33 7.7 45.8 0
11:25 1012 29.88 841 24.83 24.7 76.4 42 11.3 52.3 0
11:26 1012 29.88 841 24.83 24.7 76.5 40 10.6 51 0
11:27 1012 29.88 841 24.83 24.7 76.5 39 10.2 50.3 0
11:28 1012 29.88 841 24.83 24.8 76.7 41 11.1 51.9 0
11:29 1012 29.88 841 24.83 24.9 76.9 34 8.1 46.6 0
11:30 1012 29.88 841 24.83 25.1 77.2 34 8.2 46.8 0
11:31 1012 29.88 841 24.83 25.1 77.2 39 10.3 50.6 0
11:32 1012 29.88 841 24.83 25.1 77.2 31 7.1 44.7 0
11:33 1012 29.88 841 24.83 25.2 77.3 31 7.1 44.8 0
11:34 1012 29.88 841 24.83 25.2 77.3 35 9 48.2 0
11:35 1012 29.88 841 24.83 25.1 77.3 35 8.7 47.7 0
11:36 1012 29.88 841 24.83 25.2 77.3 38 10 49.9 0
11:37 1012 29.88 841 24.83 25.3 77.6 36 9.3 48.8 0
11:38 1012 29.88 841 24.83 25.4 77.8 36 9.3 48.8 0
11:39 1012 29.88 841 24.83 25.5 77.9 32 7.8 46 0
11:40 1012 29.88 841 24.83 25.5 77.9 33 8.5 47.3 0
11:41 1012 29.88 841 24.83 25.5 77.9 40 11.2 52.2 0
11:42 1012 29.88 841 24.83 25.5 78 39 10.9 51.6 0
11:43 1012 29.88 841 24.83 25.6 78 33 8.4 47.1 0
11:44 1012 29.88 841 24.83 25.5 77.9 32 7.8 46 0
11:45 1012 29.88 841 24.83 25.4 77.7 37 9.9 49.9 0
11:46 1012 29.88 841 24.83 25.3 77.6 39 10.5 50.9 0
11:47 1012 29.88 841 24.83 25.2 77.4 34 8.3 46.9 0
11:48 1012 29.88 841 24.83 25.2 77.4 34 8.4 47 0
11:49 1012 29.88 841 24.83 25.2 77.4 35 9.1 48.4 0
11:50 1012 29.88 841 24.83 25.2 77.3 38 10 50 0
11:51 1012 29.88 841 24.83 25.1 77.2 32 7.4 45.3 0
11:52 1012 29.88 841 24.83 25.1 77.1 33 8 46.3 0
11:53 1012 29.88 841 24.83 25.2 77.3 32 7.4 45.3 0
11:54 1012 29.88 841 24.83 25.3 77.5 35 9.1 48.4 0
11:55 1012 29.88 841 24.83 25.4 77.8 32 7.6 45.7 0
11:56 1012 29.88 841 24.83 25.6 78 33 8.1 46.6 0
11:57 1012 29.88 841 24.83 25.7 78.2 33 8.6 47.4 0
11:58 1012 29.88 841 24.83 25.7 78.3 32 7.9 46.3 0
11:59 1012 29.88 841 24.83 25.8 78.4 32 7.9 46.2 0
12:00 1012 29.88 841 24.83 25.8 78.5 29 6.6 43.9 0
12:01 1012 29.88 841 24.83 25.9 78.5 31 7.8 46 0
12:02 1012 29.88 841 24.83 26 78.7 32 8.4 47.2 0
12:03 1012 29.88 841 24.83 26.1 78.9 34 9.3 48.8 0
12:04 1012 29.88 841 24.83 26.3 79.3 32 8.6 47.5 0
12:05 1012 29.88 841 24.83 26.5 79.6 33 9.1 48.3 0
12:06 1012 29.88 841 24.83 26.6 79.9 33 9.2 48.5 0
12:07 1011 29.85 841 24.83 26.8 80.2 30 8.2 46.7 0
12:08 1011 29.85 841 24.83 26.8 80.2 32 8.9 48.1 0
12:09 1011 29.85 841 24.83 26.8 80.3 32 9.1 48.3 0
12:10 1011 29.85 841 24.83 26.9 80.5 26 6.1 43 0
12:11 1011 29.85 841 24.83 27 80.5 26 6.2 43.2 0
12:12 1011 29.85 841 24.83 27.1 80.7 26 6.1 43.1 0
12:13 1011 29.85 841 24.83 27.2 80.9 28 7.6 45.7 0
12:14 1011 29.85 841 24.83 27.3 81.1 25 5.8 42.4 0
12:15 1011 29.85 841 24.83 27.3 81.2 20 2.8 37 0
12:16 1011 29.85 841 24.83 27.4 81.3 22 4.4 39.9 0
12:17 1011 29.85 841 24.83 27.4 81.3 23 4.9 40.7 0
12:18 1011 29.85 841 24.83 27.4 81.3 26 6.3 43.4 0
12:19 1011 29.85 840 24.81 27.4 81.3 25 6 42.7 0
12:20 1011 29.85 840 24.81 27.3 81.2 26 6.6 43.9 0
12:21 1011 29.85 840 24.81 27.3 81.2 29 7.8 46.1 0
12:22 1011 29.85 840 24.81 27.4 81.2 24 5.2 41.4 0
12:23 1011 29.85 840 24.81 27.4 81.3 28 7.7 45.9 0
12:24 1011 29.85 840 24.81 27.4 81.4 27 7 44.7 0
12:25 1011 29.85 840 24.81 27.5 81.6 21 3.6 38.6 0
12:26 1011 29.85 840 24.81 27.6 81.7 19 2.2 35.9 0
12:27 1011 29.85 840 24.81 27.7 81.9 23 4.9 40.9 0
12:28 1011 29.85 840 24.81 27.8 82 19 2.4 36.3 0
12:29 1011 29.85 840 24.81 27.8 82 20 3.2 37.8 0
12:30 1011 29.85 840 24.81 27.9 82.1 23 5 41.1 0
12:31 1011 29.85 840 24.81 27.9 82.2 29 8.7 47.7 0
12:32 1011 29.85 840 24.81 28 82.4 24 6 42.8 0
12:33 1011 29.85 840 24.81 28 82.4 23 5 41 0
12:34 1011 29.85 840 24.81 28.1 82.5 31 9.5 49.1 0
12:35 1011 29.85 840 24.81 28.1 82.6 30 9 48.3 0
12:36 1011 29.85 840 24.81 28.1 82.5 29 8.7 47.6 0
12:37 1011 29.85 840 24.81 28 82.5 29 8.4 47.2 0
12:38 1011 29.85 840 24.81 28.1 82.6 28 8.2 46.7 0
12:39 1011 29.85 840 24.81 28.2 82.7 23 5.4 41.7 0
12:40 1011 29.85 840 24.81 28.3 82.9 31 10 49.9 0
12:41 1011 29.85 840 24.81 28.2 82.7 27 7.9 46.2 0
12:42 1011 29.85 840 24.81 28.1 82.6 23 5.5 42 0
12:43 1011 29.85 840 24.81 28 82.3 27 7.4 45.3 0
12:44 1011 29.85 840 24.81 27.8 82.1 24 6 42.7 0
12:45 1011 29.85 840 24.81 27.8 82.1 27 7.2 45 0
12:46 1011 29.85 840 24.81 27.9 82.1 25 6 42.9 0
12:47 1011 29.85 840 24.81 27.8 82.1 28 7.8 46 0
12:48 1011 29.85 840 24.81 27.8 82 26 6.6 43.8 0
12:49 1011 29.85 840 24.81 27.8 82.1 27 7.4 45.3 0
12:50 1011 29.85 840 24.81 27.7 81.9 28 7.8 46.1 0
12:51 1011 29.85 840 24.81 27.5 81.4 30 8.6 47.4 0
12:52 1011 29.85 840 24.81 27.1 80.9 33 9.6 49.3 0
12:53 1011 29.85 840 24.81 27 80.6 30 8 46.5 0
12:54 1011 29.85 840 24.81 26.9 80.5 29 7.6 45.7 0
12:55 1011 29.85 840 24.81 26.8 80.3 30 7.9 46.3 0
12:56 1011 29.85 840 24.81 26.8 80.2 23 4.3 39.8 0
12:57 1011 29.85 840 24.81 26.8 80.2 25 5.4 41.7 0
12:58 1011 29.85 840 24.81 26.7 80.1 21 2.9 37.3 0
12:59 1011 29.85 840 24.81 26.7 80.1 25 5.4 41.6 0
13:00 1011 29.85 840 24.81 26.7 80.1 25 5.3 41.5 0
13:01 1011 29.85 840 24.81 26.9 80.3 26 6 42.8 0
13:02 1011 29.85 840 24.81 26.9 80.5 25 5.4 41.7 0
13:03 1011 29.85 840 24.81 27 80.5 27 6.7 44.1 0
13:04 1011 29.85 840 24.81 26.9 80.4 26 6.2 43.1 0
13:05 1011 29.85 840 24.81 26.8 80.2 29 7.5 45.4 0
13:06 1011 29.85 840 24.81 26.5 79.7 27 6.5 43.6 0
13:07 1011 29.85 840 24.81 26.3 79.4 26 5.7 42.2 0
13:08 1011 29.85 840 24.81 26.2 79.1 21 2.1 35.8 0
13:09 1011 29.85 840 24.81 26.3 79.3 28 6.4 43.6 0
13:10 1011 29.85 840 24.81 26.4 79.4 26 5.5 42 0
13:11 1011 29.85 840 24.81 26.5 79.7 26 5.9 42.6 0
13:12 1011 29.85 840 24.81 26.6 79.9 26 5.6 42.1 0
13:13 1011 29.85 840 24.81 26.6 79.8 28 6.8 44.3 0
13:14 1011 29.85 840 24.81 26.5 79.7 25 5 40.9 0
13:15 1011 29.85 840 24.81 26.4 79.4 27 5.9 42.6 0
13:16 1011 29.85 840 24.81 26.2 79.1 26 5.6 42 0
13:17 1011 29.85 840 24.81 26.1 78.9 27 5.9 42.6 0
13:18 1011 29.85 840 24.81 26 78.9 28 6.1 43 0
13:19 1011 29.85 840 24.81 26 78.7 26 5.4 41.7 0
13:20 1011 29.85 840 24.81 25.9 78.7 28 6.5 43.8 0
13:21 1011 29.85 840 24.81 25.9 78.7 29 6.9 44.5 0
13:22 1011 29.85 840 24.81 25.9 78.7 27 5.7 42.2 0
13:23 1011 29.85 840 24.81 26 78.9 23 3.7 38.6 0
13:24 1011 29.85 840 24.81 26.2 79.1 24 4.5 40 0
13:25 1010 29.83 840 24.81 26.3 79.4 23 4.1 39.3 0
13:26 1010 29.83 840 24.81 26.4 79.5 22 3.4 38 0
13:27 1011 29.85 840 24.81 26.5 79.6 23 4.2 39.6 0
13:28 1011 29.85 840 24.81 26.4 79.5 27 6.1 43 0
13:29 1011 29.85 840 24.81 26.3 79.4 27 5.9 42.7 0
13:30 1011 29.85 840 24.81 26.3 79.3 32 8.3 47 0
13:31 1011 29.85 840 24.81 26.2 79.2 20 1.7 35.1 0
13:32 1011 29.85 840 24.81 26.4 79.4 28 6.8 44.3 0
13:33 1010 29.83 840 24.81 26.6 79.8 28 6.7 44.1 0
13:34 1011 29.85 840 24.81 26.6 79.8 25 5.1 41.1 0
13:35 1011 29.85 840 24.81 26.6 79.9 27 6.4 43.5 0
13:36 1011 29.85 840 24.81 26.7 80 23 4.2 39.5 0
13:37 1011 29.85 840 24.81 26.8 80.2 31 8.5 47.3 0
13:38 1011 29.85 840 24.81 26.8 80.2 34 9.8 49.6 0
13:39 1011 29.85 840 24.81 26.7 80.1 39 11.9 53.4 0
13:40 1011 29.85 840 24.81 26.5 79.6 30 7.9 46.2 0
13:41 1011 29.85 840 24.81 26.3 79.3 26 5.7 42.2 0
13:42 1011 29.85 840 24.81 26.3 79.4 29 7.1 44.8 0
13:43 1011 29.85 840 24.81 26.4 79.4 37 10.9 51.5 0
13:44 1011 29.85 840 24.81 26.2 79.2 35 9.7 49.4 0
13:45 1011 29.85 840 24.81 26 78.8 31 8 46.4 0
13:46 1011 29.85 840 24.81 25.9 78.5 32 8 46.4 0
13:47 1011 29.85 840 24.81 25.7 78.3 32 8 46.4 0
13:48 1011 29.85 840 24.81 25.7 78.3 30 7.4 45.2 0
13:49 1011 29.85 840 24.81 25.8 78.4 27 5.8 42.4 0
13:50 1011 29.85 840 24.81 25.8 78.4 32 8 46.4 0
13:51 1011 29.85 840 24.81 25.8 78.4 39 11.1 52 0
13:52 1011 29.85 840 24.81 25.6 78.1 32 8.1 46.5 0
13:53 1011 29.85 840 24.81 25.5 77.9 27 5.2 41.4 0
13:54 1011 29.85 840 24.81 25.5 77.9 29 6.6 43.8 0
13:55 1011 29.85 840 24.81 25.3 77.6 29 6.4 43.6 0
13:56 1011 29.85 840 24.81 25.1 77.1 27 4.8 40.6 0
13:57 1011 29.85 840 24.81 25 76.9 27 4.8 40.6 0
13:58 1011 29.85 840 24.81 24.9 76.8 27 4.8 40.6 0
13:59 1011 29.85 840 24.81 24.8 76.6 27 5 40.9 0
14:00 1011 29.85 840 24.81 24.7 76.4 27 4.9 40.7 0
14:01 1011 29.85 840 24.81 24.6 76.3 27 4.7 40.5 0
14:02 1011 29.85 840 24.81 24.5 76.1 27 4.7 40.5 0
14:03 1011 29.85 840 24.81 24.5 76.1 24 3 37.4 0
14:04 1011 29.85 840 24.81 24.6 76.3 22 1.9 35.5 0
14:05 1011 29.85 840 24.81 25 77 22 1.9 35.5 0
14:06 1011 29.85 840 24.81 25.2 77.4 25 4 39.3 0
14:07 1011 29.85 840 24.81 25 76.9 27 4.8 40.6 0
14:08 1011 29.85 840 24.81 24.7 76.5 27 4.7 40.4 0
14:09 1011 29.85 840 24.81 24.6 76.3 24 2.7 36.9 0
14:10 1011 29.85 840 24.81 24.8 76.6 24 2.9 37.2 0
14:11 1011 29.85 840 24.81 25.1 77.2 23 2.7 36.8 0
14:12 1011 29.85 840 24.81 25.5 77.8 23 3.1 37.7 0
14:13 1011 29.85 840 24.81 25.6 78.2 20 1.3 34.4 0
14:14 1011 29.85 840 24.81 25.9 78.6 22 2.6 36.8 0
14:15 1011 29.85 841 24.83 26.1 79 20 1.4 34.5 0
14:16 1011 29.85 841 24.83 26.5 79.6 20 2.1 35.8 0
14:17 1011 29.85 840 24.81 26.6 79.8 21 2.4 36.4 0
14:18 1011 29.85 840 24.81 26.5 79.6 22 3.3 37.9 0
14:19 1011 29.85 840 24.81 26.4 79.5 21 2.3 36.2 0
14:20 1011 29.85 841 24.83 26.5 79.6 24 4.7 40.4 0
14:21 1011 29.85 841 24.83 26.6 79.9 22 3.2 37.8 0
14:22 1011 29.85 840 24.81 26.9 80.5 19 1.9 35.4 0
14:23 1011 29.85 840 24.81 27.2 80.9 18 0.9 33.6 0
14:24 1011 29.85 840 24.81 27.3 81.1 19 2.1 35.7 0
14:25 1011 29.85 840 24.81 27.2 81 23 4.3 39.7 0
14:26 1011 29.85 840 24.81 27 80.6 21 3.1 37.5 0
14:27 1011 29.85 840 24.81 26.9 80.4 22 3.6 38.5 0
14:28 1011 29.85 840 24.81 26.8 80.2 19 1.5 34.7 0
14:29 1011 29.85 841 24.83 26.8 80.2 21 2.7 36.9 0
14:30 1011 29.85 840 24.81 26.6 79.8 22 3.4 38.1 0
14:31 1011 29.85 840 24.81 26.4 79.5 19 1.5 34.7 0
14:32 1011 29.85 841 24.83 26.4 79.5 22 3.4 38.1 0
14:33 1011 29.85 841 24.83 26.2 79.1 21 2.1 35.8 0
14:34 1011 29.85 841 24.83 26.1 79 20 1.7 35 0
14:35 1011 29.85 841 24.83 26 78.9 22 3.2 37.8 0
14:36 1011 29.85 841 24.83 25.9 78.6 22 2.8 37.1 0
14:37 1011 29.85 841 24.83 25.8 78.5 20 1.4 34.6 0
14:38 1011 29.85 841 24.83 25.9 78.6 20 1.6 34.9 0
14:39 1012 29.88 841 24.83 25.9 78.7 21 1.9 35.5 0
14:40 1012 29.88 841 24.83 25.8 78.4 21 2.4 36.2 0
14:41 1012 29.88 841 24.83 25.5 77.9 22 2.7 36.9 0
14:42 1012 29.88 841 24.83 25.3 77.6 22 2.1 35.7 0
14:43 1012 29.88 841 24.83 25.3 77.6 22 2.5 36.6 0
14:44 1012 29.88 841 24.83 25.3 77.6 23 2.7 36.9 0
14:45 1012 29.88 841 24.83 25.3 77.6 22 2.4 36.3 0
14:46 1012 29.88 841 24.83 25.4 77.6 22 2.1 35.8 0
14:47 1012 29.88 841 24.83 25.5 77.8 23 3.1 37.6 0
14:48 1012 29.88 841 24.83 25.3 77.6 23 2.8 37.1 0
14:49 1012 29.88 841 24.83 25.2 77.3 25 4.3 39.7 0
14:50 1012 29.88 841 24.83 25 77 24 3.1 37.6 0
14:51 1012 29.88 841 24.83 25 77.1 24 3.4 38.1 0
14:52 1012 29.88 841 24.83 25.1 77.3 22 2.4 36.4 0
14:53 1012 29.88 841 24.83 25.3 77.5 23 2.9 37.1 0
14:54 1012 29.88 841 24.83 25.3 77.6 23 2.9 37.2 0
14:55 1012 29.88 841 24.83 25.5 77.8 23 2.8 37 0
14:56 1012 29.88 841 24.83 25.6 78.1 24 4 39.2 0
14:57 1012 29.88 841 24.83 25.6 78 25 4.3 39.7 0
14:58 1012 29.88 841 24.83 25.6 78 25 4.3 39.7 0
14:59 1012 29.88 841 24.83 25.6 78.1 23 3 37.5 0
15:00 1012 29.88 841 24.83 25.9 78.6 25 4.6 40.3 0
15:01 1012 29.88 841 24.83 26.3 79.4 22 3.4 38.2 0
15:02 1012 29.88 841 24.83 26.7 80.1 20 2.5 36.6 0
15:03 1011 29.85 841 24.83 26.9 80.4 24 5.1 41.2 0
15:04 1011 29.85 841 24.83 26.8 80.2 23 4.1 39.3 0
15:05 1011 29.85 840 24.81 26.5 79.8 24 4.4 40 0
15:06 1011 29.85 840 24.81 26.3 79.3 24 4.5 40.2 0
15:07 1011 29.85 840 24.81 26.1 78.9 24 4.1 39.4 0
15:08 1011 29.85 840 24.81 25.8 78.4 25 4.4 39.9 0
15:09 1011 29.85 840 24.81 25.4 77.8 26 4.6 40.2 0
15:10 1011 29.85 840 24.81 25.3 77.5 24 3.6 38.4 0
15:11 1011 29.85 840 24.81 25.3 77.6 22 2.5 36.5 0
15:12 1011 29.85 840 24.81 25.6 78 20 1.1 34.1 0
15:13 1011 29.85 840 24.81 25.8 78.4 22 2.6 36.8 0
15:14 1011 29.85 840 24.81 25.7 78.2 23 3.2 37.7 0
15:15 1011 29.85 840 24.81 25.5 78 23 2.9 37.2 0
15:16 1011 29.85 840 24.81 25.6 78.1 22 2.5 36.5 0
15:17 1011 29.85 840 24.81 25.7 78.3 22 2.5 36.6 0
15:18 1011 29.85 840 24.81 25.7 78.3 23 3.2 37.8 0
15:19 1011 29.85 840 24.81 25.6 78 23 3.2 37.8 0
15:20 1011 29.85 840 24.81 25.4 77.8 23 2.9 37.3 0
15:21 1011 29.85 840 24.81 25.5 77.9 24 3.8 38.8 0
15:22 1011 29.85 840 24.81 25.5 77.8 22 2.2 35.9 0
15:23 1011 29.85 840 24.81 25.5 77.9 23 3.2 37.8 0
15:24 1011 29.85 840 24.81 25.6 78.1 24 3.5 38.4 0
15:25 1011 29.85 840 24.81 25.5 78 24 3.6 38.5 0
15:26 1011 29.85 840 24.81 25.5 77.9 23 3 37.4 0
15:27 1011 29.85 840 24.81 25.6 78.1 24 3.6 38.5 0
15:28 1011 29.85 840 24.81 25.5 77.9 24 3.8 38.8 0
15:29 1011 29.85 840 24.81 25.5 77.9 24 3.7 38.7 0
15:30 1011 29.85 840 24.81 25.4 77.7 28 5.6 42.1 0
15:31 1011 29.85 840 24.81 25.2 77.4 27 4.9 40.8 0
15:32 1011 29.85 840 24.81 25.1 77.2 27 5 41 0
15:33 1011 29.85 840 24.81 25.2 77.4 23 3 37.4 0
15:34 1011 29.85 840 24.81 25.3 77.5 26 4.8 40.6 0
15:35 1011 29.85 840 24.81 25.3 77.6 25 4.4 39.9 0
15:36 1011 29.85 840 24.81 25.4 77.6 25 4.3 39.7 0
15:37 1011 29.85 840 24.81 25.3 77.5 24 3.8 38.8 0
15:38 1011 29.85 840 24.81 25.2 77.4 26 4.8 40.7 0
15:39 1011 29.85 840 24.81 25.2 77.3 29 6.4 43.5 0
15:40 1011 29.85 840 24.81 25.1 77.1 30 6.3 43.3 0
15:41 1011 29.85 840 24.81 25 76.9 30 6.4 43.6 0
15:42 1011 29.85 840 24.81 24.8 76.6 31 6.5 43.8 0
15:43 1011 29.85 840 24.81 24.7 76.5 26 4 39.3 0
15:44 1011 29.85 840 24.81 24.9 76.8 26 4.1 39.4 0
15:45 1011 29.85 840 24.81 25 77 33 7.7 45.8 0
15:46 1011 29.85 840 24.81 24.7 76.4 28 5.3 41.5 0
15:47 1011 29.85 840 24.81 24.7 76.4 27 4.7 40.4 0
15:48 1011 29.85 840 24.81 24.7 76.5 27 4.8 40.6 0
15:49 1011 29.85 840 24.81 24.8 76.6 27 5 41 0
15:50 1011 29.85 840 24.81 24.8 76.6 25 3.9 39 0
15:51 1011 29.85 840 24.81 24.7 76.5 26 4.3 39.7 0
15:52 1011 29.85 840 24.81 24.6 76.3 25 3.5 38.4 0
15:53 1011 29.85 840 24.81 24.6 76.2 27 4.7 40.5 0
15:54 1011 29.85 840 24.81 24.6 76.2 26 4.3 39.7 0
15:55 1011 29.85 840 24.81 24.5 76.2 27 4.3 39.7 0
15:56 1011 29.85 840 24.81 24.4 75.9 27 4.6 40.2 0
15:57 1011 29.85 840 24.81 24.4 75.8 27 4.2 39.5 0
15:58 1011 29.85 840 24.81 24.4 75.9 27 4.3 39.7 0
15:59 1011 29.85 840 24.81 24.3 75.8 27 4.6 40.2 0
16:00 1011 29.85 840 24.81 24.3 75.8 27 4.3 39.7 0
16:01 1011 29.85 840 24.81 24.4 75.8 25 3.2 37.8 0
16:02 1011 29.85 840 24.81 24.4 76 26 3.9 39.1 0
16:03 1011 29.85 840 24.81 24.4 76 27 4.2 39.6 0
16:04 1011 29.85 840 24.81 24.4 76 27 4.7 40.4 0
16:05 1011 29.85 840 24.81 24.5 76.1 26 4 39.2 0
16:06 1011 29.85 840 24.81 24.7 76.4 26 4.2 39.6 0
16:07 1011 29.85 840 24.81 24.9 76.8 24 2.9 37.2 0
16:08 1011 29.85 840 24.81 25 77 25 4 39.2 0
16:09 1011 29.85 840 24.81 24.9 76.9 28 5.2 41.4 0
16:10 1011 29.85 840 24.81 24.7 76.5 25 3.7 38.6 0
16:11 1011 29.85 840 24.81 24.8 76.6 24 3.3 37.9 0
16:12 1011 29.85 840 24.81 25 76.9 24 3.5 38.3 0
16:13 1011 29.85 840 24.81 25 77 25 3.7 38.6 0
16:14 1011 29.85 840 24.81 25.1 77.1 23 3 37.4 0
16:15 1011 29.85 840 24.81 25.1 77.3 24 3.5 38.3 0
16:16 1011 29.85 840 24.81 25.1 77.2 24 3.5 38.3 0
16:17 1011 29.85 840 24.81 25.1 77.1 24 3.5 38.3 0
16:18 1011 29.85 840 24.81 25.1 77.1 25 4 39.1 0
16:19 1011 29.85 840 24.81 25 76.9 26 4.1 39.4 0
16:20 1011 29.85 840 24.81 24.8 76.6 25 3.5 38.2 0
16:21 1011 29.85 840 24.81 24.8 76.6 23 2.7 36.9 0
16:22 1011 29.85 840 24.81 24.8 76.7 24 3 37.5 0
16:23 1011 29.85 840 24.81 24.8 76.6 25 3.5 38.2 0
16:24 1011 29.85 840 24.81 24.8 76.6 24 2.9 37.2 0
16:25 1011 29.85 840 24.81 24.9 76.8 24 2.9 37.3 0
16:26 1011 29.85 840 24.81 25 76.9 24 3.3 38 0
16:27 1011 29.85 840 24.81 25 76.9 23 2.8 37.1 0
16:28 1011 29.85 840 24.81 24.9 76.8 23 2.9 37.2 0
16:29 1011 29.85 840 24.81 24.9 76.8 22 2 35.6 0
16:30 1011 29.85 840 24.81 24.9 76.9 23 2.6 36.7 0
16:31 1011 29.85 840 24.81 25 77 22 2.2 36 0
16:32 1011 29.85 840 24.81 25.1 77.1 23 2.5 36.5 0
16:33 1011 29.85 840 24.81 25 77 23 2.7 36.8 0
16:34 1011 29.85 840 24.81 25 77 22 1.9 35.4 0
16:35 1011 29.85 840 24.81 25.1 77.1 23 2.5 36.4 0
16:36 1011 29.85 840 24.81 25.1 77.2 22 2.2 36 0
16:37 1011 29.85 840 24.81 25.2 77.3 22 2.2 36 0
16:38 1011 29.85 840 24.81 25.1 77.3 22 2.4 36.3 0
16:39 1011 29.85 840 24.81 25.1 77.2 24 3.1 37.6 0
16:40 1011 29.85 840 24.81 25 77.1 24 3.3 37.9 0
16:41 1011 29.85 840 24.81 25 76.9 23 2.7 36.8 0
16:42 1011 29.85 840 24.81 25 77.1 24 3.4 38.1 0
16:43 1011 29.85 840 24.81 25.2 77.3 23 2.9 37.2 0
16:44 1011 29.85 840 24.81 25.2 77.4 24 3.4 38.1 0
16:45 1011 29.85 840 24.81 25.3 77.5 26 4.7 40.5 0
16:46 1011 29.85 840 24.81 25.3 77.5 26 4.4 40 0
16:47 1011 29.85 840 24.81 25.4 77.7 24 3.9 39 0
16:48 1011 29.85 840 24.81 25.4 77.7 24 3.4 38.1 0
16:49 1011 29.85 840 24.81 25.4 77.7 23 2.9 37.3 0
16:50 1011 29.85 840 24.81 25.4 77.6 24 3.6 38.5 0
16:51 1011 29.85 840 24.81 25.3 77.5 23 3.1 37.6 0
16:52 1010 29.83 840 24.81 25.3 77.5 24 3.5 38.2 0
16:53 1011 29.85 840 24.81 25.3 77.5 24 3.6 38.5 0
16:54 1010 29.83 840 24.81 25.3 77.5 22 2.3 36.2 0
16:55 1010 29.83 840 24.81 25.3 77.6 22 2.4 36.3 0
16:56 1010 29.83 840 24.81 25.3 77.6 22 2.4 36.4 0
16:57 1011 29.85 840 24.81 25.3 77.5 25 4.3 39.8 0
16:58 1010 29.83 840 24.81 25.1 77.2 24 3.4 38 0
16:59 1010 29.83 840 24.81 25.1 77.2 23 2.8 37.1 0
17:00 1010 29.83 840 24.81 25.3 77.6 24 3.4 38.2 0
17:01 1010 29.83 840 24.81 25.6 78 24 3.7 38.7 0
17:02 1010 29.83 840 24.81 25.7 78.2 25 4.3 39.8 0
17:03 1010 29.83 839 24.78 25.7 78.2 24 3.8 38.8 0
17:04 1010 29.83 839 24.78 25.6 78.1 26 5.1 41.1 0
17:05 1010 29.83 839 24.78 25.6 78 23 3.4 38.1 0
17:06 1010 29.83 839 24.78 25.5 77.9 23 3.4 38.1 0
17:07 1010 29.83 839 24.78 25.5 77.9 26 4.8 40.6 0
17:08 1010 29.83 839 24.78 25.5 77.9 25 4.4 40 0
17:09 1010 29.83 839 24.78 25.6 78.1 28 5.8 42.5 0
17:10 1010 29.83 839 24.78 25.7 78.2 26 5.1 41.1 0
17:11 1010 29.83 839 24.78 25.9 78.5 25 4.6 40.3 0
17:12 1010 29.83 839 24.78 25.8 78.4 25 4.5 40 0
17:13 1010 29.83 839 24.78 25.7 78.2 24 4.1 39.4 0
17:14 1010 29.83 839 24.78 25.6 78.1 22 2.7 36.9 0
17:15 1010 29.83 839 24.78 25.7 78.3 22 3 37.3 0
17:16 1010 29.83 839 24.78 25.8 78.4 23 3.4 38.1 0
17:17 1010 29.83 839 24.78 25.7 78.3 23 3.6 38.5 0
17:18 1010 29.83 839 24.78 25.5 78 25 4.5 40.2 0
17:19 1010 29.83 839 24.78 25.3 77.6 26 4.4 40 0
17:20 1010 29.83 839 24.78 25.1 77.2 26 4.3 39.8 0
17:21 1010 29.83 839 24.78 25 77 26 4.2 39.5 0
17:22 1010 29.83 839 24.78 24.9 76.8 25 3.6 38.5 0
17:23 1010 29.83 839 24.78 25.1 77.3 25 4.2 39.6 0
17:24 1010 29.83 839 24.78 25.4 77.8 24 3.5 38.4 0
17:25 1010 29.83 839 24.78 25.6 78 25 4.6 40.3 0
17:26 1010 29.83 839 24.78 25.4 77.7 26 4.8 40.7 0
17:27 1010 29.83 839 24.78 25.2 77.4 27 5.1 41.1 0
17:28 1010 29.83 839 24.78 25.1 77.1 25 4.1 39.4 0
17:29 1010 29.83 839 24.78 25 77 25 3.8 38.9 0
17:30 1010 29.83 839 24.78 24.8 76.7 25 3.5 38.3 0
17:31 1010 29.83 839 24.78 24.7 76.4 25 3.6 38.6 0
17:32 1010 29.83 839 24.78 24.6 76.3 24 2.9 37.3 0
17:33 1010 29.83 839 24.78 24.7 76.4 26 4 39.2 0
17:34 1010 29.83 839 24.78 24.7 76.4 26 4.2 39.5 0
17:35 1010 29.83 839 24.78 24.6 76.3 26 4.1 39.4 0
17:36 1010 29.83 839 24.78 24.8 76.7 25 3.6 38.5 0
17:37 1010 29.83 839 24.78 25.3 77.5 23 3 37.5 0
17:38 1010 29.83 839 24.78 25.5 77.9 24 3.8 38.8 0
17:39 1010 29.83 839 24.78 25.6 78.1 25 4.6 40.2 0
17:40 1010 29.83 839 24.78 25.6 78.1 23 3.4 38.1 0
17:41 1010 29.83 839 24.78 25.5 78 23 2.8 37.1 0
17:42 1010 29.83 839 24.78 25.5 77.8 25 4.1 39.3 0
17:43 1010 29.83 839 24.78 25.4 77.7 24 3.8 38.8 0
17:44 1010 29.83 839 24.78 25.3 77.5 27 5 41 0
17:45 1010 29.83 839 24.78 25 77 27 5 41 0
17:46 1010 29.83 839 24.78 24.9 76.8 26 4.4 39.9 0
17:47 1010 29.83 839 24.78 25.1 77.1 27 4.9 40.9 0
17:48 1010 29.83 839 24.78 25.4 77.6 25 4.2 39.6 0
17:49 1010 29.83 839 24.78 25.5 77.9 24 3.8 38.8 0
17:50 1010 29.83 839 24.78 25.6 78 26 4.7 40.4 0
17:51 1010 29.83 839 24.78 25.5 78 23 3 37.5 0
17:52 1010 29.83 839 24.78 25.6 78.1 22 2.6 36.6 0
17:53 1010 29.83 839 24.78 25.8 78.4 22 2.5 36.5 0
17:54 1010 29.83 839 24.78 25.9 78.7 23 3.4 38.1 0
17:55 1010 29.83 839 24.78 25.9 78.6 25 4.5 40.1 0
17:56 1010 29.83 839 24.78 25.7 78.2 24 3.7 38.6 0
17:57 1010 29.83 839 24.78 25.6 78.1 27 5.3 41.5 0
17:58 1010 29.83 839 24.78 25.5 78 24 3.7 38.7 0
17:59 1010 29.83 839 24.78 25.6 78.1 25 4.3 39.7 0
18:00 1010 29.83 839 24.78 25.7 78.2 23 3.4 38.2 0
18:01 1010 29.83 839 24.78 25.8 78.4 23 3.3 38 0
18:02 1010 29.83 839 24.78 25.9 78.7 23 3.3 38 0
18:03 1010 29.83 839 24.78 26 78.8 23 3.8 38.9 0
18:04 1010 29.83 839 24.78 26 78.9 24 4.3 39.8 0
18:05 1010 29.83 839 24.78 26 78.8 24 4.4 40 0
18:06 1010 29.83 839 24.78 25.9 78.5 26 5.3 41.6 0
18:07 1010 29.83 839 24.78 25.6 78 27 5.2 41.4 0
18:08 1010 29.83 839 24.78 25.5 77.9 28 5.8 42.5 0
18:09 1010 29.83 839 24.78 25.5 77.9 26 4.7 40.5 0
18:10 1010 29.83 839 24.78 25.6 78 24 4 39.2 0
18:11 1010 29.83 839 24.78 25.9 78.6 24 4 39.2 0
18:12 1010 29.83 839 24.78 26.1 78.9 24 4.1 39.3 0
18:13 1010 29.83 839 24.78 26.1 79 23 3.9 39.1 0
18:14 1010 29.83 839 24.78 26.1 78.9 26 5.4 41.8 0
18:15 1010 29.83 839 24.78 26 78.7 25 4.5 40.1 0
18:16 1010 29.83 839 24.78 26 78.9 24 4.2 39.5 0
18:17 1010 29.83 839 24.78 26.1 79 25 4.8 40.6 0
18:18 1010 29.83 839 24.78 26 78.9 26 5.4 41.7 0
18:19 1010 29.83 839 24.78 25.9 78.6 26 5.3 41.5 0
18:20 1009 29.8 839 24.78 25.9 78.6 25 4.9 40.8 0
18:21 1009 29.8 839 24.78 25.9 78.6 27 5.9 42.5 0
18:22 1009 29.8 839 24.78 25.9 78.5 24 3.9 39 0
18:23 1009 29.8 839 24.78 26 78.7 25 4.5 40.1 0
18:24 1009 29.8 839 24.78 25.9 78.6 23 3.3 38 0
18:25 1009 29.8 839 24.78 25.9 78.6 26 5.3 41.5 0
18:26 1009 29.8 839 24.78 25.8 78.5 25 4.7 40.5 0
18:27 1009 29.8 838 24.75 25.8 78.4 24 4.2 39.5 0
18:28 1009 29.8 838 24.75 25.8 78.4 25 4.4 39.9 0
18:29 1009 29.8 838 24.75 25.8 78.5 24 3.7 38.7 0
18:30 1009 29.8 838 24.75 25.9 78.5 25 4.3 39.8 0
18:31 1009 29.8 838 24.75 25.8 78.4 25 4.8 40.6 0
18:32 1009 29.8 838 24.75 25.7 78.2 23 3 37.5 0
18:33 1009 29.8 838 24.75 25.8 78.4 23 3.5 38.4 0
18:34 1009 29.8 838 24.75 25.8 78.5 22 2.8 37 0
18:35 1009 29.8 838 24.75 25.9 78.5 24 3.8 38.8 0
18:36 1009 29.8 838 24.75 25.8 78.4 24 4 39.2 0
18:37 1009 29.8 838 24.75 25.7 78.3 24 3.6 38.5 0
18:38 1009 29.8 838 24.75 25.7 78.3 24 4 39.2 0
18:39 1009 29.8 838 24.75 25.6 78.1 26 4.9 40.8 0
18:40 1009 29.8 838 24.75 25.6 78.1 24 4 39.3 0
18:41 1009 29.8 838 24.75 25.7 78.2 23 3.1 37.6 0
18:42 1009 29.8 838 24.75 25.7 78.3 23 3.1 37.6 0
18:43 1009 29.8 838 24.75 25.7 78.3 24 4.1 39.4 0
18:44 1009 29.8 838 24.75 25.6 78.1 25 4.5 40.1 0
18:45 1009 29.8 838 24.75 25.6 78 22 2.3 36.2 0
18:46 1009 29.8 838 24.75 25.6 78 23 2.9 37.3 0
18:47 1009 29.8 838 24.75 25.6 78 25 4.3 39.7 0
18:48 1009 29.8 838 24.75 25.3 77.6 25 4.1 39.4 0
18:49 1009 29.8 838 24.75 25.2 77.4 26 4.8 40.6 0
18:50 1009 29.8 838 24.75 25.3 77.5 25 3.9 39 0
18:51 1009 29.8 838 24.75 25.3 77.6 23 2.8 37 0
18:52 1009 29.8 838 24.75 25.3 77.6 24 3.4 38.1 0
18:53 1009 29.8 838 24.75 25.3 77.5 25 3.9 39.1 0
18:54 1009 29.8 838 24.75 25.2 77.4 26 4.7 40.5 0
18:55 1009 29.8 838 24.75 25 77 27 5.2 41.4 0
18:56 1009 29.8 838 24.75 24.9 76.7 28 5.1 41.2 0
18:57 1009 29.8 838 24.75 24.6 76.3 29 5.5 41.8 0
18:58 1009 29.8 838 24.75 24.4 76 29 5.7 42.2 0
18:59 1009 29.8 838 24.75 24.3 75.7 28 5.1 41.2 0
19:00 1009 29.8 838 24.75 24.2 75.6 27 4.5 40.1 0
19:01 1009 29.8 838 24.75 24.2 75.6 26 4 39.1 0
19:02 1009 29.8 838 24.75 24.4 75.8 27 4.6 40.3 0
19:03 1009 29.8 838 24.75 24.3 75.8 27 4.6 40.2 0
19:04 1009 29.8 838 24.75 24.3 75.7 28 5 41 0
19:05 1009 29.8 838 24.75 24.1 75.5 29 5 41 0
19:06 1009 29.8 838 24.75 24 75.2 32 6.5 43.7 0
19:07 1009 29.8 838 24.75 23.5 74.4 32 6 42.8 0
19:08 1009 29.8 838 24.75 23.3 73.9 31 5.3 41.5 0
19:09 1009 29.8 838 24.75 23 73.5 31 5.1 41.2 0
19:10 1009 29.8 838 24.75 22.8 73.1 32 5.4 41.7 0
19:11 1009 29.8 838 24.75 22.6 72.7 32 5.2 41.4 0
19:12 1009 29.8 838 24.75 22.6 72.7 32 5.3 41.5 0
19:13 1009 29.8 838 24.75 22.4 72.3 30 4.2 39.6 0
19:14 1009 29.8 838 24.75 22.4 72.3 31 4.5 40 0
19:15 1009 29.8 838 24.75 22.3 72.1 31 4.5 40.1 0
19:16 1009 29.8 838 24.75 22 71.6 31 4.4 39.9 0
19:17 1009 29.8 838 24.75 21.8 71.3 29 3.4 38.2 0
19:18 1009 29.8 838 24.75 21.9 71.4 29 3.1 37.6 0
19:19 1009 29.8 838 24.75 22 71.6 31 4.1 39.3 0
19:20 1009 29.8 838 24.75 21.8 71.3 30 3.8 38.9 0
19:21 1008 29.77 838 24.75 21.8 71.2 29 3.3 37.9 0
19:22 1008 29.77 838 24.75 21.9 71.3 28 3 37.3 0
19:23 1008 29.77 838 24.75 21.9 71.5 29 3.5 38.2 0
19:24 1008 29.77 838 24.75 21.8 71.2 30 3.5 38.3 0
19:25 1008 29.77 838 24.75 21.7 71 30 3.5 38.3 0
19:26 1008 29.77 838 24.75 21.5 70.6 31 3.9 39 0
19:27 1008 29.77 838 24.75 21.3 70.3 31 3.8 38.8 0
19:28 1008 29.77 838 24.75 21.1 69.9 30 3.2 37.7 0
19:29 1008 29.77 838 24.75 21.1 70.1 29 2.7 36.8 0
19:30 1008 29.77 838 24.75 21.2 70.2 30 3.2 37.8 0
19:31 1008 29.77 838 24.75 21.1 70.1 30 3.3 37.9 0
19:32 1008 29.77 838 24.75 21.1 70 31 3.3 37.9 0
19:33 1008 29.77 838 24.75 20.9 69.7 31 3.5 38.3 0
19:34 1008 29.77 838 24.75 20.7 69.2 32 3.6 38.5 0
19:35 1008 29.77 838 24.75 20.5 68.9 31 3 37.5 0
19:36 1008 29.77 838 24.75 20.4 68.7 33 3.6 38.5 0
19:37 1008 29.77 837 24.72 20.2 68.3 34 4.1 39.4 0
19:38 1008 29.77 837 24.72 19.8 67.6 35 4 39.1 0
19:39 1008 29.77 837 24.72 19.4 67 35 3.7 38.6 0
19:40 1008 29.77 837 24.72 19.2 66.5 36 4 39.2 0
19:41 1008 29.77 837 24.72 19 66.2 36 3.8 38.8 0
19:42 1008 29.77 837 24.72 19 66.2 35 3.5 38.3 0
19:43 1008 29.77 837 24.72 19.1 66.3 35 3.2 37.8 0
19:44 1008 29.77 837 24.72 19.1 66.4 34 3.1 37.6 0
19:45 1008 29.77 837 24.72 19.2 66.5 33 2.9 37.1 0
19:46 1008 29.77 837 24.72 19.2 66.6 33 2.7 36.9 0
19:47 1008 29.77 837 24.72 19.3 66.8 33 2.8 37 0
19:48 1008 29.77 837 24.72 19.3 66.7 35 3.5 38.3 0
19:49 1008 29.77 837 24.72 19 66.2 35 3.4 38.1 0
19:50 1008 29.77 837 24.72 18.8 65.9 35 3.2 37.8 0
19:51 1008 29.77 837 24.72 18.9 66 34 3 37.5 0
19:52 1008 29.77 837 24.72 19 66.2 33 2.5 36.6 0
19:53 1008 29.77 837 24.72 19.2 66.5 35 3.4 38.1 0
19:54 1008 29.77 837 24.72 18.9 65.9 37 3.9 38.9 0
19:55 1008 29.77 837 24.72 18.4 65.2 38 4.1 39.3 0
19:56 1008 29.77 837 24.72 18.1 64.5 39 3.9 39 0
19:57 1008 29.77 837 24.72 17.9 64.3 40 4.2 39.6 0
19:58 1008 29.77 837 24.72 17.8 64 37 3.2 37.8 0
19:59 1008 29.77 837 24.72 18 64.4 35 2.6 36.6 0
20:00 1008 29.77 837 24.72 18.4 65.1 36 3 37.4 0
20:01 1008 29.77 837 24.72 18.5 65.2 36 3.1 37.5 0
20:02 1008 29.77 837 24.72 18.3 65 37 3.4 38 0
20:03 1008 29.77 837 24.72 18.1 64.6 38 3.6 38.6 0
20:04 1008 29.77 837 24.72 17.9 64.3 37 3.3 38 0
20:05 1008 29.77 837 24.72 18 64.3 37 3.3 38 0
20:06 1008 29.77 837 24.72 17.8 64 38 3.4 38.1 0
20:07 1008 29.77 837 24.72 17.6 63.8 38 3.3 37.9 0
20:08 1008 29.77 837 24.72 17.7 63.8 35 2 35.7 0
20:09 1008 29.77 838 24.75 18.1 64.6 33 1.8 35.2 0
20:10 1008 29.77 838 24.75 18.6 65.5 32 1.7 35 0
20:11 1008 29.77 838 24.75 18.9 66.1 32 2.2 35.9 0
20:12 1008 29.77 837 24.72 19 66.2 33 2.4 36.4 0
20:13 1008 29.77 838 24.75 18.7 65.7 36 3.5 38.3 0
20:14 1008 29.77 837 24.72 18.2 64.8 35 2.5 36.5 0
20:15 1008 29.77 837 24.72 18.3 64.9 34 2.2 35.9 0
20:16 1008 29.77 837 24.72 18.7 65.6 30 0.9 33.7 0
20:17 1008 29.77 838 24.75 19.2 66.6 31 1.8 35.3 0
20:18 1008 29.77 837 24.72 19.3 66.7 31 1.7 35 0
20:19 1008 29.77 837 24.72 19.3 66.7 31 1.9 35.5 0
20:20 1008 29.77 837 24.72 19.2 66.5 31 2 35.6 0
20:21 1008 29.77 837 24.72 19.1 66.3 30 1.1 34 0
20:22 1008 29.77 837 24.72 19.5 67.1 29 1.1 34 0
20:23 1008 29.77 837 24.72 19.9 67.8 29 1.3 34.3 0
20:24 1008 29.77 837 24.72 19.7 67.4 33 3 37.3 0
20:25 1008 29.77 837 24.72 19.1 66.3 33 2.4 36.4 0
20:26 1008 29.77 837 24.72 18.9 66 32 2.1 35.7 0
20:27 1008 29.77 837 24.72 18.9 66 34 2.7 36.9 0
20:28 1008 29.77 837 24.72 18.5 65.4 34 2.6 36.7 0
20:29 1008 29.77 837 24.72 18.2 64.8 35 2.7 36.9 0
20:30 1008 29.77 837 24.72 18.1 64.6 35 2.4 36.3 0
20:31 1008 29.77 837 24.72 18.1 64.6 35 2.7 36.9 0
20:32 1008 29.77 837 24.72 18.2 64.7 33 1.9 35.4 0
20:33 1008 29.77 837 24.72 18.8 65.8 31 1.3 34.3 0
20:34 1008 29.77 837 24.72 19.1 66.4 31 1.8 35.2 0
20:35 1008 29.77 837 24.72 19.2 66.5 30 1.5 34.7 0
20:36 1008 29.77 837 24.72 19.4 66.9 30 1.5 34.7 0
20:37 1008 29.77 838 24.75 19.5 67.2 29 1.4 34.5 0
20:38 1008 29.77 838 24.75 19.6 67.3 28 1 33.8 0
20:39 1008 29.77 838 24.75 19.7 67.5 30 2 35.6 0
20:40 1008 29.77 838 24.75 19.5 67.1 31 2.2 36 0
20:41 1008 29.77 837 24.72 19.3 66.8 32 2.2 36 0
20:42 1008 29.77 838 24.75 19.3 66.7 32 2.2 35.9 0
20:43 1008 29.77 838 24.75 19.2 66.6 33 2.5 36.5 0
20:44 1008 29.77 838 24.75 19 66.2 33 2.5 36.4 0
20:45 1008 29.77 838 24.75 18.9 66 33 2.4 36.3 0
20:46 1008 29.77 838 24.75 19 66.1 33 2.6 36.6 0
20:47 1008 29.77 838 24.75 18.9 66 33 2.6 36.7 0
20:48 1009 29.8 838 24.75 18.8 65.8 36 3.6 38.6 0
20:49 1009 29.8 838 24.75 18.3 64.9 36 3.1 37.6 0
20:50 1009 29.8 838 24.75 17.9 64.2 37 3.2 37.8 0
20:51 1009 29.8 838 24.75 17.6 63.7 43 4.9 40.9 0
20:52 1009 29.8 838 24.75 17 62.5 46 5.4 41.8 0
20:53 1009 29.8 838 24.75 16.3 61.4 47 5.1 41.2 0
20:54 1009 29.8 838 24.75 15.9 60.7 48 4.9 40.9 0
20:55 1009 29.8 838 24.75 15.7 60.3 47 4.7 40.4 0
20:56 1009 29.8 838 24.75 15.6 60.1 46 4.1 39.3 0
20:57 1009 29.8 838 24.75 15.8 60.4 44 3.7 38.7 0
20:58 1009 29.8 838 24.75 16 60.7 43 3.6 38.4 0
20:59 1009 29.8 838 24.75 16.1 61.1 41 3 37.4 0
21:00 1009 29.8 838 24.75 16.5 61.7 40 3 37.3 0
21:01 1009 29.8 838 24.75 16.8 62.2 40 3.1 37.6 0
21:02 1009 29.8 838 24.75 16.9 62.4 41 3.6 38.4 0
21:03 1009 29.8 838 24.75 16.7 62 43 4.1 39.4 0
21:04 1009 29.8 838 24.75 16.4 61.5 43 3.9 39.1 0
21:05 1009 29.8 838 24.75 16.2 61.2 45 4.5 40 0
21:06 1009 29.8 838 24.75 16 60.8 47 4.7 40.4 0
21:07 1009 29.8 838 24.75 15.8 60.4 44 3.7 38.6 0
21:08 1009 29.8 838 24.75 15.9 60.7 42 3.2 37.7 0
21:09 1009 29.8 838 24.75 16.3 61.3 40 2.7 36.9 0
21:10 1009 29.8 838 24.75 16.7 62.1 38 2.4 36.3 0
21:11 1009 29.8 838 24.75 17.2 62.9 37 2.5 36.4 0
21:12 1009 29.8 838 24.75 17.6 63.7 36 2.5 36.5 0
21:13 1009 29.8 838 24.75 18 64.3 36 2.8 37.1 0
21:14 1009 29.8 838 24.75 18.1 64.5 37 3.4 38.2 0
21:15 1009 29.8 838 24.75 17.8 64 40 4.1 39.4 0
21:16 1009 29.8 838 24.75 17.3 63.1 42 4.4 39.8 0
21:17 1009 29.8 838 24.75 16.9 62.3 44 4.5 40.1 0
21:18 1009 29.8 838 24.75 16.4 61.5 46 4.7 40.5 0
21:19 1009 29.8 838 24.75 16 60.8 46 4.6 40.2 0
21:20 1009 29.8 838 24.75 15.9 60.6 45 4 39.1 0
21:21 1009 29.8 839 24.78 16.2 61.1 44 3.9 39 0
21:22 1009 29.8 839 24.78 16.5 61.7 44 4.2 39.6 0
21:23 1009 29.8 839 24.78 16.7 62.1 42 3.9 39.1 0
21:24 1009 29.8 839 24.78 16.9 62.3 44 4.7 40.4 0
21:25 1009 29.8 839 24.78 16.7 62.1 44 4.6 40.3 0
21:26 1009 29.8 839 24.78 16.5 61.7 43 3.9 39 0
21:27 1009 29.8 839 24.78 16.5 61.8 45 4.5 40.1 0
21:28 1009 29.8 839 24.78 16.6 61.9 42 3.7 38.6 0
21:29 1009 29.8 839 24.78 17 62.5 39 3 37.4 0
21:30 1009 29.8 839 24.78 17.5 63.5 39 3.3 38 0
21:31 1009 29.8 839 24.78 17.8 64 40 4.1 39.4 0
21:32 1009 29.8 839 24.78 17.7 63.9 40 4 39.1 0
21:33 1009 29.8 839 24.78 17.7 63.8 39 3.8 38.8 0
21:34 1009 29.8 839 24.78 17.8 64 41 4.4 39.9 0
21:35 1009 29.8 839 24.78 17.7 63.8 42 4.8 40.7 0
21:36 1009 29.8 839 24.78 17.4 63.4 43 4.7 40.5 0
21:37 1009 29.8 839 24.78 17.2 63 41 4 39.2 0
21:38 1009 29.8 839 24.78 17.3 63.1 40 3.6 38.5 0
21:39 1009 29.8 839 24.78 17.7 63.8 38 3.2 37.7 0
21:40 1009 29.8 839 24.78 18 64.5 37 3.1 37.7 0
21:41 1009 29.8 839 24.78 18.3 65 37 3.7 38.7 0
21:42 1009 29.8 839 24.78 18.5 65.4 37 3.6 38.5 0
21:43 1009 29.8 839 24.78 18.7 65.7 36 3.5 38.3 0
21:44 1010 29.83 839 24.78 18.7 65.6 38 4.1 39.4 0
21:45 1010 29.83 839 24.78 18.4 65.2 39 4.3 39.7 0
21:46 1010 29.83 839 24.78 18.1 64.6 39 4.2 39.6 0
21:47 1010 29.83 839 24.78 17.9 64.2 39 3.8 38.9 0
21:48 1010 29.83 839 24.78 17.9 64.2 39 4 39.2 0
21:49 1010 29.83 839 24.78 17.9 64.3 40 4.2 39.6 0
21:50 1010 29.83 839 24.78 17.8 64 40 4.3 39.7 0
21:51 1010 29.83 839 24.78 17.6 63.7 42 4.7 40.4 0
21:52 1010 29.83 839 24.78 17.3 63.1 44 5.1 41.2 0
21:53 1010 29.83 839 24.78 16.8 62.3 46 5.3 41.6 0
21:54 1010 29.83 839 24.78 16.4 61.5 48 5.4 41.8 0
21:55 1010 29.83 839 24.78 16 60.8 49 5.5 41.9 0
21:56 1010 29.83 839 24.78 15.7 60.2 49 5.1 41.2 0
21:57 1010 29.83 839 24.78 15.6 60.1 48 4.6 40.4 0
21:58 1010 29.83 839 24.78 15.8 60.4 46 4.3 39.8 0
21:59 1009 29.8 839 24.78 15.9 60.6 47 4.7 40.5 0
22:00 1009 29.8 839 24.78 15.9 60.5 48 4.8 40.7 0
22:01 1009 29.8 839 24.78 15.7 60.3 49 5.2 41.3 0
22:02 1010 29.83 839 24.78 15.5 59.8 50 5.1 41.1 0
22:03 1010 29.83 839 24.78 15.3 59.6 50 5.1 41.1 0
22:04 1010 29.83 839 24.78 15.2 59.4 51 5.2 41.4 0
22:05 1010 29.83 839 24.78 15.2 59.4 51 5.2 41.3 0
22:06 1010 29.83 839 24.78 15.3 59.6 50 5.1 41.2 0
22:07 1010 29.83 839 24.78 15.4 59.6 50 5 41.1 0
22:08 1010 29.83 839 24.78 15.5 59.8 50 5.2 41.4 0
22:09 1010 29.83 839 24.78 15.4 59.7 50 5.1 41.2 0
22:10 1010 29.83 839 24.78 15.5 59.8 50 5.1 41.2 0
22:11 1010 29.83 839 24.78 15.6 60 50 5.3 41.6 0
22:12 1010 29.83 839 24.78 15.6 60 51 5.6 42 0
22:13 1010 29.83 839 24.78 15.6 60.1 49 5.1 41.2 0
22:14 1010 29.83 839 24.78 15.8 60.4 48 4.9 40.9 0
22:15 1010 29.83 839 24.78 15.9 60.7 48 5.2 41.3 0
22:16 1010 29.83 839 24.78 16 60.8 48 5.1 41.2 0
22:17 1010 29.83 839 24.78 16.1 60.9 48 5.2 41.4 0
22:18 1010 29.83 839 24.78 16.1 61 47 5 41.1 0
22:19 1009 29.8 839 24.78 16.2 61.1 47 5 41 0
22:20 1009 29.8 839 24.78 16.2 61.1 48 5.3 41.5 0
22:21 1009 29.8 839 24.78 16.2 61.1 46 4.8 40.6 0
22:22 1009 29.8 839 24.78 16.3 61.3 47 5 41 0
22:23 1009 29.8 839 24.78 16.3 61.4 47 5 41.1 0
22:24 1009 29.8 839 24.78 16.5 61.7 45 4.8 40.6 0
22:25 1009 29.8 839 24.78 16.6 61.9 45 4.7 40.5 0
22:26 1009 29.8 839 24.78 16.7 62.1 44 4.5 40 0
22:27 1009 29.8 839 24.78 16.9 62.4 45 4.8 40.7 0
22:28 1009 29.8 839 24.78 16.8 62.3 46 5.1 41.2 0
22:29 1009 29.8 839 24.78 16.7 62.1 44 4.4 40 0
22:30 1009 29.8 839 24.78 16.8 62.2 45 4.9 40.9 0
22:31 1009 29.8 839 24.78 16.8 62.2 45 4.8 40.6 0
22:32 1009 29.8 839 24.78 16.8 62.2 43 4.3 39.7 0
22:33 1009 29.8 839 24.78 17.1 62.8 43 4.5 40.1 0
22:34 1009 29.8 839 24.78 17.2 63 43 4.7 40.5 0
22:35 1009 29.8 839 24.78 17.2 62.9 45 5.1 41.2 0
22:36 1009 29.8 839 24.78 17 62.5 45 5.1 41.2 0
22:37 1009 29.8 839 24.78 16.7 62 45 4.9 40.9 0
22:38 1009 29.8 839 24.78 16.6 61.8 46 5 41.1 0
22:39 1009 29.8 839 24.78 16.4 61.6 46 5 41 0
22:40 1009 29.8 839 24.78 16.4 61.5 47 5.1 41.2 0
22:41 1009 29.8 839 24.78 16.3 61.3 49 5.5 41.9 0
22:42 1009 29.8 839 24.78 16 60.7 51 6 42.7 0
22:43 1009 29.8 839 24.78 15.6 60 52 5.8 42.5 0
22:44 1009 29.8 839 24.78 15.3 59.5 53 5.7 42.3 0
22:45 1009 29.8 839 24.78 15.1 59.1 54 6 42.8 0
22:46 1009 29.8 839 24.78 14.8 58.6 55 5.9 42.7 0
22:47 1009 29.8 839 24.78 14.6 58.2 54 5.6 42 0
22:48 1009 29.8 839 24.78 14.6 58.3 54 5.4 41.7 0
22:49 1009 29.8 839 24.78 14.7 58.5 52 5.1 41.2 0
22:50 1009 29.8 839 24.78 14.9 58.8 52 5.2 41.3 0
22:51 1009 29.8 839 24.78 14.9 58.8 53 5.4 41.7 0
22:52 1009 29.8 839 24.78 14.8 58.7 54 5.6 42 0
22:53 1009 29.8 839 24.78 14.7 58.5 54 5.6 42.1 0
22:54 1009 29.8 839 24.78 14.6 58.3 54 5.6 42.1 0
22:55 1009 29.8 838 24.75 14.6 58.2 54 5.5 41.9 0
22:56 1009 29.8 839 24.78 14.6 58.2 54 5.5 41.8 0
22:57 1009 29.8 839 24.78 14.5 58.1 54 5.5 41.9 0
22:58 1009 29.8 839 24.78 14.4 57.9 55 5.6 42.1 0
22:59 1009 29.8 839 24.78 14.2 57.6 56 5.7 42.2 0
23:00 1009 29.8 839 24.78 14.1 57.4 57 5.7 42.3 0
23:01 1009 29.8 839 24.78 14 57.2 57 5.6 42.1 0
23:02 1009 29.8 839 24.78 14 57.2 57 5.7 42.3 0
23:03 1009 29.8 839 24.78 13.9 57.1 58 5.9 42.7 0
23:04 1009 29.8 839 24.78 13.7 56.6 60 6 42.8 0
23:05 1009 29.8 839 24.78 13.4 56.2 60 5.9 42.6 0
23:06 1009 29.8 839 24.78 13.3 55.9 60 5.8 42.5 0
23:07 1009 29.8 839 24.78 13.1 55.6 62 5.9 42.7 0
23:08 1009 29.8 839 24.78 12.9 55.2 63 6 42.8 0
23:09 1009 29.8 839 24.78 12.6 54.7 64 6 42.8 0
23:10 1010 29.83 839 24.78 12.3 54.1 63 5.5 42 0
23:11 1010 29.83 839 24.78 12.2 53.9 63 5.5 41.9 0
23:12 1010 29.83 839 24.78 12.1 53.8 61 4.8 40.6 0
23:13 1010 29.83 839 24.78 12.4 54.3 58 4.4 39.9 0
23:14 1010 29.83 839 24.78 12.8 55 57 4.6 40.2 0
23:15 1010 29.83 839 24.78 13 55.4 59 5.3 41.6 0
23:16 1010 29.83 839 24.78 12.9 55.2 59 5.1 41.3 0
23:17 1010 29.83 839 24.78 12.8 55 59 4.9 40.8 0
23:18 1010 29.83 839 24.78 13 55.3 55 4.1 39.5 0
23:19 1010 29.83 839 24.78 13.4 56.2 54 4.5 40.1 0
23:20 1010 29.83 839 24.78 13.8 56.9 52 4.1 39.5 0
23:21 1010 29.83 839 24.78 14.3 57.7 50 4.2 39.5 0
23:22 1010 29.83 839 24.78 14.6 58.3 49 4.1 39.4 0
23:23 1010 29.83 839 24.78 14.8 58.7 51 4.8 40.7 0
23:24 1010 29.83 839 24.78 14.5 58 51 4.5 40.1 0
23:25 1010 29.83 839 24.78 14.2 57.6 54 5 41 0
23:26 1010 29.83 839 24.78 13.8 56.8 56 5.1 41.2 0
23:27 1010 29.83 839 24.78 13.8 56.8 52 4.2 39.6 0
23:28 1010 29.83 839 24.78 14.3 57.7 49 3.8 38.8 0
23:29 1010 29.83 839 24.78 14.7 58.5 52 5.1 41.1 0
23:30 1010 29.83 839 24.78 14.4 58 49 4 39.3 0
23:31 1010 29.83 839 24.78 14.3 57.8 51 4.3 39.8 0
23:32 1010 29.83 839 24.78 14.2 57.6 53 4.9 40.7 0
23:33 1010 29.83 839 24.78 14.1 57.4 49 3.7 38.7 0
23:34 1010 29.83 839 24.78 14.4 58 51 4.6 40.2 0
23:35 1010 29.83 839 24.78 14.5 58 50 4.3 39.8 0
23:36 1010 29.83 839 24.78 14.5 58.2 51 4.6 40.3 0
23:37 1010 29.83 839 24.78 14.5 58.1 48 3.8 38.8 0
23:38 1010 29.83 839 24.78 15 59.1 45 3.2 37.7 0
23:39 1010 29.83 839 24.78 15.7 60.3 46 4.1 39.4 0
23:40 1010 29.83 839 24.78 15.6 60 45 3.9 39 0
23:41 1010 29.83 839 24.78 15.2 59.3 51 5.3 41.5 0
23:42 1010 29.83 839 24.78 14.3 57.7 54 5.3 41.5 0
23:43 1010 29.83 839 24.78 13.6 56.5 57 5.4 41.8 0
23:44 1010 29.83 839 24.78 13.1 55.6 60 5.5 41.8 0
23:45 1010 29.83 839 24.78 12.7 54.8 61 5.5 41.9 0
23:46 1010 29.83 839 24.78 12.3 54.1 62 5.4 41.7 0
23:47 1010 29.83 839 24.78 12.1 53.8 64 5.5 42 0
23:48 1010 29.83 839 24.78 11.7 53.1 66 5.6 42.1 0
23:49 1010 29.83 839 24.78 11.3 52.3 68 5.6 42.1 0
23:50 1010 29.83 839 24.78 11 51.8 68 5.4 41.7 0
23:51 1010 29.83 839 24.78 11.1 51.9 68 5.4 41.7 0
23:52 1010 29.83 839 24.78 11.1 52 68 5.5 41.9 0
23:53 1010 29.83 839 24.78 11.1 52 67 5.3 41.6 0
23:54 1010 29.83 839 24.78 11.3 52.3 66 5.3 41.6 0
23:55 1010 29.83 839 24.78 11.3 52.4 66 5.3 41.5 0
23:56 1010 29.83 839 24.78 11.3 52.4 65 5.1 41.2 0
23:57 1010 29.83 839 24.78 11.5 52.8 64 5 41.1 0
23:58 1010 29.83 839 24.78 11.7 53 63 5 41 0
23:59 1010 29.83 839 24.78 11.8 53.3 63 5.1 41.2 0
24:00 1010 29.83 839 24.78 11.9 53.3 63 5.1 41.1 0